UAL244 KSFO-VTSP
Flight info
| Callsign | UAL244 |
|---|---|
| Flight time | N/A |
| Altitude | 34000 |
| Route | GNNRR3 AMAKR DCT BOXER B453 MDO DCT NODLE R220 IXE Y88 NAKTU Y12 AYANO Y128 LAXEL Y52 IGURU G581 TULTO Q13 KABAM N892 MIGUG/K0920F340 N892 MESOX L628 PCA G474 PLK R588 GONLY/N0498F340 R588 EMRIT EMRIT1C |
| Aircraft | B77L/H-SDE1E2E3FGHIJ2J3J4J5M1RWXY/LB1D1 |
Departure
| Time | N/A |
|---|---|
| Airport | San Francisco International Airport (KSFO) |
Arrival
| Time | 2026-04-28 23:09 |
|---|---|
| Airport | Phuket International Airport (VTSP) |
| Time | Latitude | Longitude | Altitude | Speed | Heading |
|---|---|---|---|---|---|
| 2026-04-28 15:55 | 40.67303 | 145.29774 | 39179 ft | 490 kts | 226° |
| 2026-04-28 15:55 | 40.64878 | 145.26673 | 39523 ft | 484 kts | 221° |
| 2026-04-28 15:56 | 40.62343 | 145.23764 | 39719 ft | 482 kts | 220° |
| 2026-04-28 15:56 | 40.59824 | 145.20934 | 39850 ft | 482 kts | 221° |
| 2026-04-28 15:56 | 40.54783 | 145.15072 | 39969 ft | 484 kts | 222° |
| 2026-04-28 15:57 | 40.49798 | 145.09044 | 40000 ft | 489 kts | 223° |
| 2026-04-28 15:57 | 40.44778 | 145.02951 | 40010 ft | 493 kts | 223° |
| 2026-04-28 15:58 | 40.39742 | 144.96883 | 40011 ft | 496 kts | 222° |
| 2026-04-28 15:58 | 40.34631 | 144.90746 | 40008 ft | 500 kts | 222° |
| 2026-04-28 15:59 | 40.30325 | 144.85583 | 40008 ft | 502 kts | 222° |
| 2026-04-28 15:59 | 40.24310 | 144.78383 | 40007 ft | 505 kts | 222° |
| 2026-04-28 16:00 | 40.19104 | 144.72165 | 40005 ft | 507 kts | 222° |
| 2026-04-28 16:00 | 40.13878 | 144.65937 | 40003 ft | 509 kts | 222° |
| 2026-04-28 16:01 | 40.08635 | 144.59703 | 40003 ft | 510 kts | 222° |
| 2026-04-28 16:01 | 40.03372 | 144.53458 | 40001 ft | 511 kts | 222° |
| 2026-04-28 16:02 | 39.98100 | 144.47216 | 40001 ft | 511 kts | 222° |
| 2026-04-28 16:02 | 39.92832 | 144.40993 | 39998 ft | 510 kts | 222° |
| 2026-04-28 16:03 | 39.87611 | 144.34838 | 39999 ft | 509 kts | 222° |
| 2026-04-28 16:03 | 39.82368 | 144.28671 | 39998 ft | 507 kts | 222° |
| 2026-04-28 16:04 | 39.77141 | 144.22534 | 39999 ft | 506 kts | 222° |
| 2026-04-28 16:04 | 39.72766 | 144.17409 | 39999 ft | 505 kts | 222° |
| 2026-04-28 16:05 | 39.66700 | 144.10318 | 40000 ft | 504 kts | 222° |
| 2026-04-28 16:05 | 39.62368 | 144.05265 | 40000 ft | 503 kts | 222° |
| 2026-04-28 16:06 | 39.57154 | 143.99195 | 40003 ft | 503 kts | 222° |
| 2026-04-28 16:06 | 39.51969 | 143.93170 | 40000 ft | 503 kts | 222° |
| 2026-04-28 16:07 | 39.46757 | 143.87127 | 40001 ft | 503 kts | 222° |
| 2026-04-28 16:08 | 39.38910 | 143.78053 | 40002 ft | 504 kts | 221° |
| 2026-04-28 16:08 | 39.33681 | 143.72022 | 40001 ft | 504 kts | 221° |
| 2026-04-28 16:09 | 39.29298 | 143.66977 | 40001 ft | 505 kts | 221° |
| 2026-04-28 16:10 | 39.21459 | 143.57975 | 40001 ft | 505 kts | 221° |
| 2026-04-28 16:10 | 39.13557 | 143.48929 | 40001 ft | 506 kts | 221° |
| 2026-04-28 16:11 | 39.03048 | 143.36940 | 40002 ft | 506 kts | 221° |
| 2026-04-28 16:12 | 38.95135 | 143.27944 | 40001 ft | 506 kts | 221° |
| 2026-04-28 16:13 | 38.87394 | 143.18722 | 40001 ft | 506 kts | 225° |
| 2026-04-28 16:14 | 38.77576 | 143.05783 | 40000 ft | 506 kts | 225° |
| 2026-04-28 16:15 | 38.67747 | 142.92972 | 40000 ft | 506 kts | 225° |
| 2026-04-28 16:15 | 38.62808 | 142.86566 | 40000 ft | 505 kts | 225° |
| 2026-04-28 16:16 | 38.55394 | 142.76969 | 40001 ft | 505 kts | 225° |
| 2026-04-28 16:17 | 38.47972 | 142.67391 | 40000 ft | 505 kts | 225° |
| 2026-04-28 16:17 | 38.43020 | 142.61015 | 40000 ft | 505 kts | 225° |
| 2026-04-28 16:18 | 38.38072 | 142.54659 | 40000 ft | 505 kts | 225° |
| 2026-04-28 16:18 | 38.33118 | 142.48306 | 40002 ft | 505 kts | 225° |
| 2026-04-28 16:19 | 38.28204 | 142.41967 | 40000 ft | 505 kts | 225° |
| 2026-04-28 16:19 | 38.23300 | 142.35573 | 40000 ft | 505 kts | 226° |
| 2026-04-28 16:20 | 38.18383 | 142.29177 | 40001 ft | 505 kts | 225° |
| 2026-04-28 16:20 | 38.13457 | 142.22795 | 40001 ft | 505 kts | 225° |
| 2026-04-28 16:21 | 38.08525 | 142.16420 | 40000 ft | 505 kts | 225° |
| 2026-04-28 16:21 | 38.03596 | 142.10061 | 40000 ft | 505 kts | 225° |
| 2026-04-28 16:22 | 37.98664 | 142.03711 | 40000 ft | 505 kts | 225° |
| 2026-04-28 16:22 | 37.93735 | 141.97373 | 40000 ft | 505 kts | 225° |
| 2026-04-28 16:23 | 37.88826 | 141.91067 | 40000 ft | 505 kts | 225° |
| 2026-04-28 16:23 | 37.83887 | 141.84736 | 40001 ft | 505 kts | 225° |
| 2026-04-28 16:24 | 37.78942 | 141.78409 | 40000 ft | 505 kts | 225° |
| 2026-04-28 16:24 | 37.73993 | 141.72090 | 40000 ft | 505 kts | 225° |
| 2026-04-28 16:25 | 37.69043 | 141.65783 | 40000 ft | 505 kts | 225° |
| 2026-04-28 16:25 | 37.64093 | 141.59488 | 40002 ft | 505 kts | 225° |
| 2026-04-28 16:26 | 37.59137 | 141.53198 | 40001 ft | 505 kts | 225° |
| 2026-04-28 16:26 | 37.54180 | 141.46920 | 40000 ft | 505 kts | 225° |
| 2026-04-28 16:27 | 37.49216 | 141.40645 | 40001 ft | 505 kts | 225° |
| 2026-04-28 16:28 | 37.41799 | 141.31293 | 40000 ft | 505 kts | 225° |
| 2026-04-28 16:28 | 37.36831 | 141.25044 | 40001 ft | 505 kts | 225° |
| 2026-04-28 16:29 | 37.29367 | 141.15679 | 40001 ft | 505 kts | 225° |
| 2026-04-28 16:30 | 37.21899 | 141.06334 | 40000 ft | 505 kts | 225° |
| 2026-04-28 16:30 | 37.16907 | 141.00103 | 40000 ft | 505 kts | 225° |
| 2026-04-28 16:31 | 37.12200 | 140.93579 | 40005 ft | 505 kts | 231° |
| 2026-04-28 16:31 | 37.07825 | 140.86689 | 40004 ft | 505 kts | 231° |
| 2026-04-28 16:32 | 37.03475 | 140.79844 | 40001 ft | 505 kts | 231° |
| 2026-04-28 16:32 | 36.96858 | 140.69570 | 40002 ft | 505 kts | 231° |
| 2026-04-28 16:33 | 36.93177 | 140.63885 | 40001 ft | 505 kts | 231° |
| 2026-04-28 16:33 | 36.88004 | 140.55907 | 40000 ft | 506 kts | 231° |
| 2026-04-28 16:34 | 36.83573 | 140.49084 | 40003 ft | 506 kts | 231° |
| 2026-04-28 16:34 | 36.79142 | 140.42274 | 39999 ft | 506 kts | 231° |
| 2026-04-28 16:35 | 36.74710 | 140.35454 | 40002 ft | 505 kts | 232° |
| 2026-04-28 16:35 | 36.70749 | 140.28214 | 40003 ft | 505 kts | 237° |
| 2026-04-28 16:36 | 36.66978 | 140.20894 | 40000 ft | 505 kts | 237° |
| 2026-04-28 16:36 | 36.63138 | 140.13548 | 40000 ft | 505 kts | 237° |
| 2026-04-28 16:37 | 36.59279 | 140.06235 | 40001 ft | 505 kts | 237° |
| 2026-04-28 16:38 | 36.53472 | 139.95278 | 40001 ft | 505 kts | 236° |
| 2026-04-28 16:38 | 36.49669 | 139.88124 | 40001 ft | 505 kts | 236° |
| 2026-04-28 16:39 | 36.45667 | 139.80936 | 40006 ft | 505 kts | 233° |
| 2026-04-28 16:39 | 36.41492 | 139.73979 | 40000 ft | 505 kts | 233° |
| 2026-04-28 16:40 | 36.40091 | 139.71611 | 40000 ft | 505 kts | 234° |
| 2026-04-28 16:40 | 36.35964 | 139.64546 | 40001 ft | 505 kts | 234° |
| 2026-04-28 16:41 | 36.31849 | 139.57474 | 40000 ft | 505 kts | 234° |
| 2026-04-28 16:41 | 36.27726 | 139.50411 | 40001 ft | 505 kts | 234° |
| 2026-04-28 16:42 | 36.23596 | 139.43357 | 40001 ft | 505 kts | 234° |
| 2026-04-28 16:42 | 36.19459 | 139.36306 | 40000 ft | 506 kts | 234° |
| 2026-04-28 16:43 | 36.15588 | 139.29051 | 40007 ft | 505 kts | 242° |
| 2026-04-28 16:43 | 36.12635 | 139.21227 | 40007 ft | 505 kts | 246° |
| 2026-04-28 16:44 | 36.09753 | 139.13296 | 40000 ft | 505 kts | 245° |
| 2026-04-28 16:44 | 36.06811 | 139.05374 | 40002 ft | 506 kts | 245° |
| 2026-04-28 16:45 | 36.03851 | 138.97487 | 40003 ft | 506 kts | 245° |
| 2026-04-28 16:45 | 36.00886 | 138.89595 | 40003 ft | 506 kts | 245° |
| 2026-04-28 16:46 | 35.97937 | 138.81763 | 40001 ft | 506 kts | 245° |
| 2026-04-28 16:46 | 35.94968 | 138.73893 | 40002 ft | 506 kts | 245° |
| 2026-04-28 16:47 | 35.91997 | 138.66029 | 40001 ft | 506 kts | 245° |
| 2026-04-28 16:47 | 35.89014 | 138.58159 | 40003 ft | 506 kts | 245° |
| 2026-04-28 16:48 | 35.86020 | 138.50308 | 40001 ft | 506 kts | 245° |
| 2026-04-28 16:48 | 35.83020 | 138.42460 | 40000 ft | 506 kts | 244° |
| 2026-04-28 16:49 | 35.80020 | 138.34622 | 40002 ft | 506 kts | 244° |
| 2026-04-28 16:49 | 35.77016 | 138.26787 | 39999 ft | 506 kts | 244° |
| 2026-04-28 16:50 | 35.74031 | 138.18993 | 40001 ft | 506 kts | 244° |
| 2026-04-28 16:50 | 35.71029 | 138.11171 | 40005 ft | 506 kts | 244° |
| 2026-04-28 16:51 | 35.68020 | 138.03347 | 39999 ft | 506 kts | 244° |
| 2026-04-28 16:51 | 35.65062 | 137.95489 | 40002 ft | 505 kts | 246° |
| 2026-04-28 16:52 | 35.62228 | 137.87575 | 39999 ft | 506 kts | 246° |
| 2026-04-28 16:52 | 35.59371 | 137.79686 | 40002 ft | 505 kts | 245° |
| 2026-04-28 16:53 | 35.56430 | 137.71846 | 40002 ft | 505 kts | 245° |
| 2026-04-28 16:53 | 35.53460 | 137.64069 | 40000 ft | 505 kts | 245° |
| 2026-04-28 16:54 | 35.50486 | 137.56246 | 40004 ft | 505 kts | 245° |
| 2026-04-28 16:54 | 35.47791 | 137.49839 | 39992 ft | 504 kts | 234° |
| 2026-04-28 16:55 | 35.42905 | 137.43725 | 40011 ft | 503 kts | 216° |
| 2026-04-28 16:55 | 35.36877 | 137.39526 | 40010 ft | 502 kts | 207° |
| 2026-04-28 16:56 | 35.30670 | 137.35554 | 40004 ft | 504 kts | 208° |
| 2026-04-28 16:56 | 35.24492 | 137.31474 | 40001 ft | 505 kts | 208° |
| 2026-04-28 16:57 | 35.18304 | 137.27334 | 40004 ft | 506 kts | 208° |
| 2026-04-28 16:57 | 35.12116 | 137.23217 | 40001 ft | 507 kts | 208° |
| 2026-04-28 16:58 | 35.05943 | 137.19134 | 40002 ft | 507 kts | 208° |
| 2026-04-28 16:58 | 34.99728 | 137.15030 | 40000 ft | 508 kts | 208° |
| 2026-04-28 16:59 | 34.93518 | 137.10932 | 40000 ft | 508 kts | 208° |
| 2026-04-28 16:59 | 34.87303 | 137.06838 | 40000 ft | 507 kts | 208° |
| 2026-04-28 17:00 | 34.81093 | 137.02753 | 40000 ft | 507 kts | 208° |
| 2026-04-28 17:00 | 34.74883 | 136.98674 | 40000 ft | 506 kts | 208° |
| 2026-04-28 17:01 | 34.68811 | 136.94363 | 40001 ft | 506 kts | 216° |
| 2026-04-28 17:01 | 34.63220 | 136.89188 | 40005 ft | 505 kts | 218° |
| 2026-04-28 17:02 | 34.57702 | 136.84001 | 39999 ft | 505 kts | 217° |
| 2026-04-28 17:02 | 34.52115 | 136.78824 | 40002 ft | 505 kts | 217° |
| 2026-04-28 17:03 | 34.43715 | 136.71107 | 40002 ft | 505 kts | 217° |
| 2026-04-28 17:03 | 34.38104 | 136.65960 | 40002 ft | 505 kts | 217° |
| 2026-04-28 17:04 | 34.29695 | 136.58254 | 40001 ft | 505 kts | 217° |
| 2026-04-28 17:05 | 34.21363 | 136.50430 | 40001 ft | 505 kts | 218° |
| 2026-04-28 17:06 | 34.13040 | 136.42616 | 40002 ft | 505 kts | 218° |
| 2026-04-28 17:06 | 34.04200 | 136.35836 | 40007 ft | 505 kts | 207° |
| 2026-04-28 17:07 | 33.97961 | 136.31981 | 40003 ft | 505 kts | 207° |
| 2026-04-28 17:07 | 33.91701 | 136.28101 | 40001 ft | 505 kts | 207° |
| 2026-04-28 17:08 | 33.85457 | 136.24188 | 40001 ft | 505 kts | 207° |
| 2026-04-28 17:08 | 33.79220 | 136.20266 | 40001 ft | 506 kts | 207° |
| 2026-04-28 17:09 | 33.72989 | 136.16353 | 40001 ft | 506 kts | 207° |
| 2026-04-28 17:09 | 33.68898 | 136.13789 | 40001 ft | 506 kts | 207° |
| 2026-04-28 17:10 | 33.65256 | 136.11510 | 40001 ft | 506 kts | 207° |
| 2026-04-28 17:10 | 33.58998 | 136.07600 | 40001 ft | 506 kts | 207° |
| 2026-04-28 17:11 | 33.52791 | 136.03727 | 40003 ft | 506 kts | 207° |
| 2026-04-28 17:11 | 33.46547 | 135.99838 | 40001 ft | 506 kts | 207° |
| 2026-04-28 17:12 | 33.40295 | 135.95950 | 40001 ft | 506 kts | 207° |
| 2026-04-28 17:12 | 33.34046 | 135.92070 | 40000 ft | 506 kts | 207° |
| 2026-04-28 17:13 | 33.27794 | 135.88195 | 40001 ft | 506 kts | 207° |
| 2026-04-28 17:13 | 33.21550 | 135.84331 | 40001 ft | 506 kts | 207° |
| 2026-04-28 17:14 | 33.15301 | 135.80470 | 40001 ft | 506 kts | 207° |
| 2026-04-28 17:14 | 33.09045 | 135.76611 | 40001 ft | 505 kts | 207° |
| 2026-04-28 17:15 | 33.02835 | 135.72786 | 40001 ft | 505 kts | 207° |
| 2026-04-28 17:15 | 32.96583 | 135.68942 | 40002 ft | 505 kts | 207° |
| 2026-04-28 17:16 | 32.90330 | 135.65103 | 40001 ft | 505 kts | 207° |
| 2026-04-28 17:16 | 32.84074 | 135.61269 | 40001 ft | 505 kts | 207° |
| 2026-04-28 17:17 | 32.77821 | 135.57442 | 40002 ft | 505 kts | 207° |
| 2026-04-28 17:17 | 32.71572 | 135.53625 | 40002 ft | 505 kts | 207° |
| 2026-04-28 17:18 | 32.65310 | 135.49805 | 40002 ft | 505 kts | 207° |
| 2026-04-28 17:18 | 32.59052 | 135.45994 | 40001 ft | 505 kts | 207° |
| 2026-04-28 17:19 | 32.52797 | 135.42190 | 40001 ft | 505 kts | 207° |
| 2026-04-28 17:19 | 32.46569 | 135.38408 | 40001 ft | 505 kts | 207° |
| 2026-04-28 17:20 | 32.41316 | 135.35224 | 40001 ft | 505 kts | 207° |
| 2026-04-28 17:20 | 32.34040 | 135.30820 | 40002 ft | 505 kts | 207° |
| 2026-04-28 17:21 | 32.27775 | 135.27033 | 40000 ft | 505 kts | 207° |
| 2026-04-28 17:22 | 32.18373 | 135.21361 | 40002 ft | 505 kts | 207° |
| 2026-04-28 17:22 | 32.12188 | 135.17423 | 39991 ft | 505 kts | 214° |
| 2026-04-28 17:23 | 32.06831 | 135.12090 | 40005 ft | 505 kts | 226° |
| 2026-04-28 17:23 | 32.04566 | 135.08927 | 40003 ft | 504 kts | 232° |
| 2026-04-28 17:23 | 32.00347 | 135.02373 | 40000 ft | 505 kts | 233° |
| 2026-04-28 17:24 | 31.96118 | 134.95766 | 40001 ft | 505 kts | 233° |
| 2026-04-28 17:24 | 31.91845 | 134.89192 | 40001 ft | 505 kts | 232° |
| 2026-04-28 17:25 | 31.85396 | 134.79372 | 40001 ft | 506 kts | 232° |
| 2026-04-28 17:26 | 31.81083 | 134.72823 | 40001 ft | 506 kts | 232° |
| 2026-04-28 17:26 | 31.76774 | 134.66286 | 40001 ft | 506 kts | 232° |
| 2026-04-28 17:27 | 31.72484 | 134.59788 | 40000 ft | 506 kts | 232° |
| 2026-04-28 17:27 | 31.68164 | 134.53254 | 40002 ft | 506 kts | 232° |
| 2026-04-28 17:28 | 31.63838 | 134.46723 | 40004 ft | 506 kts | 232° |
| 2026-04-28 17:28 | 31.57372 | 134.36982 | 40000 ft | 506 kts | 232° |
| 2026-04-28 17:29 | 31.53045 | 134.30477 | 40000 ft | 506 kts | 232° |
| 2026-04-28 17:30 | 31.46547 | 134.20729 | 40000 ft | 505 kts | 232° |
| 2026-04-28 17:30 | 31.40044 | 134.10996 | 40000 ft | 505 kts | 232° |
| 2026-04-28 17:31 | 31.33535 | 134.01281 | 40002 ft | 505 kts | 232° |
| 2026-04-28 17:32 | 31.27044 | 133.91617 | 40005 ft | 505 kts | 232° |
| 2026-04-28 17:32 | 31.22700 | 133.85162 | 40000 ft | 505 kts | 232° |
| 2026-04-28 17:33 | 31.18453 | 133.78862 | 40000 ft | 505 kts | 232° |
| 2026-04-28 17:33 | 31.15544 | 133.74551 | 40000 ft | 505 kts | 232° |
| 2026-04-28 17:34 | 31.09739 | 133.65964 | 40000 ft | 505 kts | 232° |
| 2026-04-28 17:34 | 31.05382 | 133.59530 | 40000 ft | 505 kts | 231° |
| 2026-04-28 17:35 | 31.01022 | 133.53105 | 40001 ft | 505 kts | 231° |
| 2026-04-28 17:35 | 30.96684 | 133.46718 | 40003 ft | 505 kts | 231° |
| 2026-04-28 17:36 | 30.92289 | 133.40254 | 40001 ft | 505 kts | 231° |
| 2026-04-28 17:36 | 30.87952 | 133.33884 | 40002 ft | 505 kts | 231° |
| 2026-04-28 17:37 | 30.83581 | 133.27476 | 40001 ft | 505 kts | 231° |
| 2026-04-28 17:37 | 30.79204 | 133.21069 | 40000 ft | 505 kts | 231° |
| 2026-04-28 17:38 | 30.74826 | 133.14671 | 40001 ft | 505 kts | 231° |
| 2026-04-28 17:38 | 30.71181 | 133.09351 | 40001 ft | 505 kts | 231° |
| 2026-04-28 17:39 | 30.66800 | 133.02968 | 40001 ft | 505 kts | 231° |
| 2026-04-28 17:40 | 30.63402 | 132.98025 | 40004 ft | 505 kts | 231° |
| 2026-04-28 17:40 | 30.59011 | 132.91645 | 40004 ft | 505 kts | 231° |
| 2026-04-28 17:41 | 30.54622 | 132.85279 | 40001 ft | 505 kts | 231° |
| 2026-04-28 17:41 | 30.50228 | 132.78915 | 40001 ft | 505 kts | 231° |
| 2026-04-28 17:42 | 30.45821 | 132.72544 | 40001 ft | 505 kts | 231° |
| 2026-04-28 17:42 | 30.41417 | 132.66187 | 40001 ft | 505 kts | 231° |
| 2026-04-28 17:43 | 30.37012 | 132.59838 | 40001 ft | 505 kts | 231° |
| 2026-04-28 17:43 | 30.32636 | 132.53541 | 40001 ft | 505 kts | 231° |
| 2026-04-28 17:44 | 30.28224 | 132.47203 | 40003 ft | 505 kts | 231° |
| 2026-04-28 17:44 | 30.23805 | 132.40864 | 40001 ft | 505 kts | 231° |
| 2026-04-28 17:45 | 30.19387 | 132.34537 | 40001 ft | 505 kts | 231° |
| 2026-04-28 17:45 | 30.14970 | 132.28222 | 40002 ft | 505 kts | 231° |
| 2026-04-28 17:46 | 30.10544 | 132.21903 | 40001 ft | 505 kts | 231° |
| 2026-04-28 17:46 | 30.06120 | 132.15596 | 40002 ft | 505 kts | 231° |
| 2026-04-28 17:47 | 30.01688 | 132.09290 | 40002 ft | 505 kts | 231° |
| 2026-04-28 17:47 | 29.97281 | 132.03026 | 40002 ft | 505 kts | 231° |
| 2026-04-28 17:48 | 29.92850 | 131.96741 | 40001 ft | 505 kts | 231° |
| 2026-04-28 17:48 | 29.88409 | 131.90449 | 40001 ft | 505 kts | 231° |
| 2026-04-28 17:49 | 29.83965 | 131.84160 | 40001 ft | 505 kts | 231° |
| 2026-04-28 17:49 | 29.79689 | 131.77727 | 40004 ft | 505 kts | 235° |
| 2026-04-28 17:50 | 29.75699 | 131.71068 | 40004 ft | 505 kts | 236° |
| 2026-04-28 17:50 | 29.71747 | 131.64433 | 39999 ft | 505 kts | 235° |
| 2026-04-28 17:51 | 29.67750 | 131.57777 | 40001 ft | 505 kts | 235° |
| 2026-04-28 17:51 | 29.63737 | 131.51136 | 40002 ft | 505 kts | 235° |
| 2026-04-28 17:52 | 29.59720 | 131.44506 | 40002 ft | 505 kts | 235° |
| 2026-04-28 17:52 | 29.53687 | 131.34562 | 40000 ft | 506 kts | 235° |
| 2026-04-28 17:53 | 29.49657 | 131.27934 | 40000 ft | 506 kts | 235° |
| 2026-04-28 17:53 | 29.45634 | 131.21324 | 40001 ft | 506 kts | 235° |
| 2026-04-28 17:54 | 29.41599 | 131.14708 | 40000 ft | 506 kts | 235° |
| 2026-04-28 17:54 | 29.37563 | 131.08099 | 40000 ft | 506 kts | 235° |
| 2026-04-28 17:55 | 29.33544 | 131.01530 | 40001 ft | 506 kts | 235° |
| 2026-04-28 17:55 | 29.29502 | 130.94934 | 40000 ft | 505 kts | 235° |
| 2026-04-28 17:56 | 29.25430 | 130.88299 | 40000 ft | 505 kts | 235° |
| 2026-04-28 17:56 | 29.21411 | 130.81760 | 40003 ft | 505 kts | 234° |
| 2026-04-28 17:57 | 29.17359 | 130.75180 | 40000 ft | 505 kts | 234° |
| 2026-04-28 17:57 | 29.13305 | 130.68605 | 40000 ft | 505 kts | 234° |
| 2026-04-28 17:58 | 29.09250 | 130.62040 | 40000 ft | 505 kts | 234° |
| 2026-04-28 17:58 | 29.05194 | 130.55482 | 40002 ft | 505 kts | 234° |
| 2026-04-28 17:59 | 29.01128 | 130.48919 | 40000 ft | 505 kts | 234° |
| 2026-04-28 17:59 | 28.97060 | 130.42364 | 40002 ft | 505 kts | 234° |
| 2026-04-28 18:00 | 28.93017 | 130.35858 | 39999 ft | 505 kts | 234° |
| 2026-04-28 18:00 | 28.88948 | 130.29321 | 40003 ft | 505 kts | 234° |
| 2026-04-28 18:01 | 28.84869 | 130.22778 | 40002 ft | 505 kts | 234° |
| 2026-04-28 18:01 | 28.80787 | 130.16241 | 40001 ft | 505 kts | 234° |
| 2026-04-28 18:02 | 28.76705 | 130.09714 | 40002 ft | 505 kts | 234° |
| 2026-04-28 18:02 | 28.72639 | 130.03222 | 40001 ft | 505 kts | 234° |
| 2026-04-28 18:03 | 28.68550 | 129.96704 | 40002 ft | 505 kts | 234° |
| 2026-04-28 18:03 | 28.64501 | 129.90259 | 40004 ft | 505 kts | 234° |
| 2026-04-28 18:04 | 28.60401 | 129.83743 | 40001 ft | 505 kts | 234° |
| 2026-04-28 18:04 | 28.56303 | 129.77239 | 40002 ft | 505 kts | 234° |
| 2026-04-28 18:05 | 28.52898 | 129.71841 | 40000 ft | 505 kts | 234° |
| 2026-04-28 18:05 | 28.48101 | 129.64249 | 40001 ft | 505 kts | 234° |
| 2026-04-28 18:06 | 28.43961 | 129.57782 | 40001 ft | 505 kts | 231° |
| 2026-04-28 18:06 | 28.39434 | 129.51739 | 40004 ft | 505 kts | 229° |
| 2026-04-28 18:07 | 28.34792 | 129.45736 | 40000 ft | 505 kts | 229° |
| 2026-04-28 18:07 | 28.30163 | 129.39729 | 40005 ft | 505 kts | 229° |
| 2026-04-28 18:08 | 28.25542 | 129.33695 | 40001 ft | 505 kts | 229° |
| 2026-04-28 18:08 | 28.20935 | 129.27673 | 40001 ft | 506 kts | 229° |
| 2026-04-28 18:09 | 28.16352 | 129.21691 | 40000 ft | 506 kts | 229° |
| 2026-04-28 18:09 | 28.14042 | 129.18679 | 40002 ft | 505 kts | 229° |
| 2026-04-28 18:10 | 28.10491 | 129.14056 | 40000 ft | 506 kts | 229° |
| 2026-04-28 18:10 | 28.05873 | 129.08052 | 40001 ft | 505 kts | 229° |
| 2026-04-28 18:11 | 28.01253 | 129.02053 | 40000 ft | 505 kts | 229° |
| 2026-04-28 18:11 | 27.96631 | 128.96060 | 40004 ft | 505 kts | 229° |
| 2026-04-28 18:12 | 27.92004 | 128.90069 | 40000 ft | 505 kts | 229° |
| 2026-04-28 18:12 | 27.87372 | 128.84080 | 40000 ft | 505 kts | 229° |
| 2026-04-28 18:13 | 27.82743 | 128.78104 | 40000 ft | 505 kts | 229° |
| 2026-04-28 18:13 | 27.78138 | 128.72166 | 40000 ft | 505 kts | 229° |
| 2026-04-28 18:14 | 27.73471 | 128.66158 | 40002 ft | 505 kts | 229° |
| 2026-04-28 18:14 | 27.68866 | 128.60237 | 40000 ft | 505 kts | 229° |
| 2026-04-28 18:15 | 27.64223 | 128.54277 | 40005 ft | 505 kts | 229° |
| 2026-04-28 18:15 | 27.59573 | 128.48315 | 40002 ft | 505 kts | 229° |
| 2026-04-28 18:16 | 27.54928 | 128.42368 | 40000 ft | 505 kts | 229° |
| 2026-04-28 18:16 | 27.50278 | 128.36423 | 40000 ft | 505 kts | 229° |
| 2026-04-28 18:17 | 27.45619 | 128.30474 | 40000 ft | 505 kts | 229° |
| 2026-04-28 18:17 | 27.40965 | 128.24541 | 40000 ft | 505 kts | 229° |
| 2026-04-28 18:18 | 27.36342 | 128.18654 | 40000 ft | 505 kts | 229° |
| 2026-04-28 18:18 | 27.32435 | 128.13686 | 40001 ft | 505 kts | 228° |
| 2026-04-28 18:19 | 27.27016 | 128.06805 | 40003 ft | 505 kts | 228° |
| 2026-04-28 18:19 | 27.24688 | 128.03859 | 39294 ft | 496 kts | 231° |
| 2026-04-28 18:19 | 27.22469 | 128.01059 | 39778 ft | 464 kts | 231° |
| 2026-04-28 18:20 | 27.20369 | 127.98409 | 39891 ft | 445 kts | 232° |
| 2026-04-28 18:20 | 27.18357 | 127.95862 | 39959 ft | 441 kts | 232° |
| 2026-04-28 18:20 | 27.14281 | 127.90689 | 40040 ft | 445 kts | 232° |
| 2026-04-28 18:21 | 27.10147 | 127.85453 | 40050 ft | 450 kts | 232° |
| 2026-04-28 18:21 | 27.05965 | 127.80172 | 40052 ft | 455 kts | 232° |
| 2026-04-28 18:22 | 27.01735 | 127.74840 | 40053 ft | 459 kts | 232° |
| 2026-04-28 18:22 | 26.97499 | 127.69510 | 40064 ft | 462 kts | 232° |
| 2026-04-28 18:23 | 26.93209 | 127.64117 | 40068 ft | 465 kts | 232° |
| 2026-04-28 18:23 | 26.88894 | 127.58700 | 40077 ft | 466 kts | 232° |
| 2026-04-28 18:24 | 26.86008 | 127.55081 | 40081 ft | 466 kts | 231° |
| 2026-04-28 18:24 | 26.80992 | 127.48799 | 40081 ft | 464 kts | 232° |
| 2026-04-28 18:25 | 26.76691 | 127.43418 | 40076 ft | 462 kts | 232° |
| 2026-04-28 18:26 | 26.70268 | 127.35394 | 40052 ft | 460 kts | 232° |
| 2026-04-28 18:26 | 26.66001 | 127.30071 | 40046 ft | 458 kts | 232° |
| 2026-04-28 18:27 | 26.61745 | 127.24768 | 40045 ft | 457 kts | 232° |
| 2026-04-28 18:27 | 26.57500 | 127.19485 | 40044 ft | 457 kts | 232° |
| 2026-04-28 18:28 | 26.53253 | 127.14206 | 40038 ft | 457 kts | 232° |
| 2026-04-28 18:28 | 26.49002 | 127.08928 | 40037 ft | 456 kts | 232° |
| 2026-04-28 18:29 | 26.44752 | 127.03659 | 40034 ft | 457 kts | 232° |
| 2026-04-28 18:29 | 26.40499 | 126.98390 | 40035 ft | 457 kts | 232° |
| 2026-04-28 18:30 | 26.36262 | 126.93150 | 40032 ft | 458 kts | 232° |
| 2026-04-28 18:30 | 26.31989 | 126.87869 | 40031 ft | 459 kts | 232° |
| 2026-04-28 18:31 | 26.27707 | 126.82586 | 40032 ft | 460 kts | 232° |
| 2026-04-28 18:31 | 26.23415 | 126.77295 | 40030 ft | 461 kts | 232° |
| 2026-04-28 18:32 | 26.19107 | 126.71991 | 40032 ft | 461 kts | 232° |
| 2026-04-28 18:32 | 26.14794 | 126.66688 | 40028 ft | 462 kts | 232° |
| 2026-04-28 18:33 | 26.10470 | 126.61378 | 40030 ft | 463 kts | 232° |
| 2026-04-28 18:33 | 26.06139 | 126.56065 | 40028 ft | 464 kts | 232° |
| 2026-04-28 18:34 | 26.01831 | 126.50786 | 40026 ft | 464 kts | 232° |
| 2026-04-28 18:34 | 25.97483 | 126.45465 | 40026 ft | 464 kts | 232° |
| 2026-04-28 18:35 | 25.93137 | 126.40152 | 40031 ft | 465 kts | 232° |
| 2026-04-28 18:35 | 25.88785 | 126.34839 | 40021 ft | 465 kts | 232° |
| 2026-04-28 18:36 | 25.84418 | 126.29513 | 40022 ft | 466 kts | 232° |
| 2026-04-28 18:36 | 25.80052 | 126.24195 | 39852 ft | 466 kts | 231° |
| 2026-04-28 18:37 | 25.75694 | 126.18893 | 39952 ft | 464 kts | 231° |
| 2026-04-28 18:37 | 25.71367 | 126.13635 | 40012 ft | 465 kts | 231° |
| 2026-04-28 18:38 | 25.66992 | 126.08324 | 40023 ft | 466 kts | 231° |
| 2026-04-28 18:38 | 25.62605 | 126.03005 | 40020 ft | 468 kts | 230° |
| 2026-04-28 18:39 | 25.58205 | 125.97676 | 40017 ft | 469 kts | 230° |
| 2026-04-28 18:39 | 25.53793 | 125.92340 | 40015 ft | 469 kts | 230° |
| 2026-04-28 18:40 | 25.52572 | 125.90864 | 40014 ft | 470 kts | 230° |
| 2026-04-28 18:40 | 25.48153 | 125.85528 | 40013 ft | 470 kts | 230° |
| 2026-04-28 18:41 | 25.43729 | 125.80190 | 40013 ft | 470 kts | 230° |
| 2026-04-28 18:41 | 25.39309 | 125.74865 | 40014 ft | 470 kts | 230° |
| 2026-04-28 18:42 | 25.34886 | 125.69541 | 40008 ft | 470 kts | 230° |
| 2026-04-28 18:42 | 25.30466 | 125.64225 | 40010 ft | 469 kts | 230° |
| 2026-04-28 18:43 | 25.26044 | 125.58911 | 40009 ft | 469 kts | 230° |
| 2026-04-28 18:43 | 25.21702 | 125.53591 | 40008 ft | 469 kts | 231° |
| 2026-04-28 18:44 | 25.17360 | 125.48222 | 40007 ft | 469 kts | 231° |
| 2026-04-28 18:44 | 25.10832 | 125.40178 | 40004 ft | 469 kts | 231° |
| 2026-04-28 18:45 | 25.06576 | 125.34952 | 40002 ft | 469 kts | 231° |
| 2026-04-28 18:45 | 25.02214 | 125.29604 | 40000 ft | 469 kts | 231° |
| 2026-04-28 18:46 | 24.97843 | 125.24250 | 39995 ft | 469 kts | 231° |
| 2026-04-28 18:46 | 24.93472 | 125.18903 | 39995 ft | 469 kts | 231° |
| 2026-04-28 18:47 | 24.89100 | 125.13560 | 39996 ft | 470 kts | 231° |
| 2026-04-28 18:47 | 24.84721 | 125.08215 | 39994 ft | 470 kts | 231° |
| 2026-04-28 18:48 | 24.80333 | 125.02866 | 39991 ft | 470 kts | 231° |
| 2026-04-28 18:48 | 24.75945 | 124.97521 | 39995 ft | 470 kts | 231° |
| 2026-04-28 18:49 | 24.73036 | 124.93982 | 39995 ft | 471 kts | 231° |
| 2026-04-28 18:49 | 24.67183 | 124.86869 | 39995 ft | 471 kts | 231° |
| 2026-04-28 18:50 | 24.62778 | 124.81522 | 39993 ft | 471 kts | 231° |
| 2026-04-28 18:50 | 24.58364 | 124.76170 | 39993 ft | 472 kts | 230° |
| 2026-04-28 18:51 | 24.53972 | 124.70852 | 39991 ft | 472 kts | 230° |
| 2026-04-28 18:51 | 24.49550 | 124.65503 | 39991 ft | 473 kts | 230° |
| 2026-04-28 18:52 | 24.45124 | 124.60155 | 39992 ft | 473 kts | 230° |
| 2026-04-28 18:52 | 24.40686 | 124.54799 | 39989 ft | 474 kts | 230° |
| 2026-04-28 18:53 | 24.36243 | 124.49443 | 39974 ft | 475 kts | 230° |
| 2026-04-28 18:53 | 24.31793 | 124.44084 | 39970 ft | 475 kts | 230° |
| 2026-04-28 18:54 | 24.27334 | 124.38721 | 39972 ft | 476 kts | 230° |
| 2026-04-28 18:54 | 24.22862 | 124.33348 | 39982 ft | 477 kts | 230° |
| 2026-04-28 18:55 | 24.19146 | 124.28888 | 39970 ft | 478 kts | 230° |
| 2026-04-28 18:55 | 24.13900 | 124.22597 | 39978 ft | 478 kts | 230° |
| 2026-04-28 18:56 | 24.09407 | 124.17217 | 39985 ft | 479 kts | 231° |
| 2026-04-28 18:56 | 24.04929 | 124.11860 | 39982 ft | 479 kts | 231° |
| 2026-04-28 18:57 | 24.00427 | 124.06479 | 39977 ft | 479 kts | 231° |
| 2026-04-28 18:57 | 23.95928 | 124.01090 | 39976 ft | 478 kts | 232° |
| 2026-04-28 18:58 | 23.92000 | 123.95328 | 39984 ft | 474 kts | 239° |
| 2026-04-28 18:58 | 23.88328 | 123.89343 | 39976 ft | 473 kts | 239° |
| 2026-04-28 18:59 | 23.84646 | 123.83370 | 39969 ft | 473 kts | 238° |
| 2026-04-28 18:59 | 23.80950 | 123.77425 | 39973 ft | 472 kts | 238° |
| 2026-04-28 19:00 | 23.77252 | 123.71499 | 39968 ft | 472 kts | 238° |
| 2026-04-28 19:00 | 23.73552 | 123.65579 | 39966 ft | 472 kts | 238° |
| 2026-04-28 19:01 | 23.69876 | 123.59704 | 39966 ft | 472 kts | 238° |
| 2026-04-28 19:01 | 23.66173 | 123.53789 | 39964 ft | 472 kts | 238° |
| 2026-04-28 19:02 | 23.62464 | 123.47872 | 39967 ft | 472 kts | 238° |
| 2026-04-28 19:02 | 23.58751 | 123.41956 | 39961 ft | 472 kts | 238° |
| 2026-04-28 19:03 | 23.55028 | 123.36031 | 39964 ft | 474 kts | 238° |
| 2026-04-28 19:03 | 23.51309 | 123.30117 | 39964 ft | 476 kts | 238° |
| 2026-04-28 19:04 | 23.47554 | 123.24154 | 39964 ft | 478 kts | 238° |
| 2026-04-28 19:04 | 23.43779 | 123.18168 | 39963 ft | 479 kts | 238° |
| 2026-04-28 19:05 | 23.39989 | 123.12163 | 39964 ft | 480 kts | 238° |
| 2026-04-28 19:05 | 23.36199 | 123.06166 | 39966 ft | 481 kts | 238° |
| 2026-04-28 19:06 | 23.33051 | 123.01189 | 39958 ft | 480 kts | 238° |
| 2026-04-28 19:06 | 23.28329 | 122.94404 | 39966 ft | 481 kts | 234° |
| 2026-04-28 19:07 | 23.24164 | 122.88711 | 39960 ft | 480 kts | 234° |
| 2026-04-28 19:07 | 23.20041 | 122.83067 | 39957 ft | 479 kts | 234° |
| 2026-04-28 19:08 | 23.15906 | 122.77380 | 39958 ft | 478 kts | 234° |
| 2026-04-28 19:08 | 23.11786 | 122.71705 | 39951 ft | 478 kts | 234° |
| 2026-04-28 19:09 | 23.07671 | 122.66042 | 39966 ft | 477 kts | 234° |
| 2026-04-28 19:09 | 23.05614 | 122.63214 | 39947 ft | 477 kts | 234° |
| 2026-04-28 19:10 | 23.03161 | 122.59844 | 39958 ft | 477 kts | 234° |
| 2026-04-28 19:10 | 22.99050 | 122.54203 | 39966 ft | 476 kts | 234° |
| 2026-04-28 19:11 | 22.94936 | 122.48562 | 39952 ft | 476 kts | 234° |
| 2026-04-28 19:11 | 22.90817 | 122.42923 | 39955 ft | 476 kts | 234° |
| 2026-04-28 19:12 | 22.86699 | 122.37289 | 39959 ft | 477 kts | 234° |
| 2026-04-28 19:12 | 22.82577 | 122.31657 | 39951 ft | 477 kts | 234° |
| 2026-04-28 19:13 | 22.78479 | 122.26063 | 39952 ft | 477 kts | 234° |
| 2026-04-28 19:13 | 22.74346 | 122.20428 | 39956 ft | 477 kts | 234° |
| 2026-04-28 19:14 | 22.70208 | 122.14793 | 39955 ft | 478 kts | 234° |
| 2026-04-28 19:14 | 22.66066 | 122.09157 | 39954 ft | 478 kts | 234° |
| 2026-04-28 19:15 | 22.61921 | 122.03524 | 39949 ft | 478 kts | 234° |
| 2026-04-28 19:15 | 22.58472 | 121.98841 | 39949 ft | 478 kts | 234° |
| 2026-04-28 19:16 | 22.53615 | 121.92253 | 39950 ft | 478 kts | 234° |
| 2026-04-28 19:16 | 22.49489 | 121.86664 | 39952 ft | 478 kts | 234° |
| 2026-04-28 19:17 | 22.45335 | 121.81042 | 39951 ft | 478 kts | 234° |
| 2026-04-28 19:17 | 22.41180 | 121.75423 | 39948 ft | 478 kts | 234° |
| 2026-04-28 19:18 | 22.37025 | 121.69812 | 39944 ft | 477 kts | 234° |
| 2026-04-28 19:18 | 22.32870 | 121.64212 | 39948 ft | 477 kts | 234° |
| 2026-04-28 19:19 | 22.28744 | 121.58662 | 39948 ft | 477 kts | 234° |
| 2026-04-28 19:19 | 22.24590 | 121.53076 | 39951 ft | 476 kts | 234° |
| 2026-04-28 19:20 | 22.20438 | 121.47497 | 39948 ft | 476 kts | 234° |
| 2026-04-28 19:20 | 22.16288 | 121.41925 | 39947 ft | 476 kts | 234° |
| 2026-04-28 19:21 | 22.12134 | 121.36365 | 39947 ft | 475 kts | 234° |
| 2026-04-28 19:21 | 22.07981 | 121.30820 | 39945 ft | 475 kts | 234° |
| 2026-04-28 19:22 | 22.04521 | 121.26201 | 39943 ft | 475 kts | 234° |
| 2026-04-28 19:22 | 21.99689 | 121.19755 | 39946 ft | 475 kts | 234° |
| 2026-04-28 19:23 | 21.95546 | 121.14221 | 39944 ft | 474 kts | 234° |
| 2026-04-28 19:23 | 21.91402 | 121.08673 | 39942 ft | 474 kts | 234° |
| 2026-04-28 19:24 | 21.87269 | 121.03143 | 39940 ft | 474 kts | 234° |
| 2026-04-28 19:24 | 21.83125 | 120.97606 | 39940 ft | 474 kts | 234° |
| 2026-04-28 19:25 | 21.79012 | 120.92116 | 39932 ft | 474 kts | 234° |
| 2026-04-28 19:25 | 21.74867 | 120.86590 | 39930 ft | 474 kts | 234° |
| 2026-04-28 19:26 | 21.71467 | 120.82061 | 39935 ft | 474 kts | 234° |
| 2026-04-28 19:26 | 21.67323 | 120.76546 | 39930 ft | 474 kts | 234° |
| 2026-04-28 19:27 | 21.63180 | 120.71037 | 39924 ft | 473 kts | 234° |
| 2026-04-28 19:27 | 21.59036 | 120.65531 | 39923 ft | 473 kts | 234° |
| 2026-04-28 19:28 | 21.54891 | 120.60034 | 39922 ft | 473 kts | 234° |
| 2026-04-28 19:28 | 21.50736 | 120.54550 | 39919 ft | 473 kts | 234° |
| 2026-04-28 19:29 | 21.47277 | 120.49994 | 39920 ft | 473 kts | 234° |
| 2026-04-28 19:29 | 21.42442 | 120.43625 | 39915 ft | 473 kts | 234° |
| 2026-04-28 19:30 | 21.38279 | 120.38145 | 39917 ft | 473 kts | 234° |
| 2026-04-28 19:30 | 21.34117 | 120.32672 | 39917 ft | 473 kts | 234° |
| 2026-04-28 19:31 | 21.29951 | 120.27198 | 39917 ft | 473 kts | 234° |
| 2026-04-28 19:31 | 21.25790 | 120.21736 | 39910 ft | 473 kts | 234° |
| 2026-04-28 19:32 | 21.21631 | 120.16284 | 39912 ft | 473 kts | 234° |
| 2026-04-28 19:32 | 21.17494 | 120.10864 | 39909 ft | 472 kts | 234° |
| 2026-04-28 19:33 | 21.13330 | 120.05414 | 39910 ft | 472 kts | 234° |
| 2026-04-28 19:33 | 21.09167 | 119.99971 | 39908 ft | 472 kts | 233° |
| 2026-04-28 19:34 | 21.04997 | 119.94523 | 39912 ft | 472 kts | 233° |
| 2026-04-28 19:34 | 21.00828 | 119.89084 | 39912 ft | 472 kts | 233° |
| 2026-04-28 19:35 | 20.96323 | 119.83933 | 39920 ft | 474 kts | 228° |
| 2026-04-28 19:35 | 20.91677 | 119.78971 | 39908 ft | 475 kts | 228° |
| 2026-04-28 19:36 | 20.87000 | 119.73973 | 39907 ft | 475 kts | 228° |
| 2026-04-28 19:36 | 20.82331 | 119.68957 | 39908 ft | 475 kts | 228° |
| 2026-04-28 19:37 | 20.78456 | 119.64787 | 39908 ft | 475 kts | 228° |
| 2026-04-28 19:37 | 20.72997 | 119.58915 | 39905 ft | 476 kts | 228° |
| 2026-04-28 19:38 | 20.68331 | 119.53902 | 39909 ft | 476 kts | 228° |
| 2026-04-28 19:38 | 20.63664 | 119.48893 | 39912 ft | 476 kts | 228° |
| 2026-04-28 19:39 | 20.59023 | 119.43918 | 39908 ft | 476 kts | 228° |
| 2026-04-28 19:39 | 20.54354 | 119.38916 | 39912 ft | 475 kts | 228° |
| 2026-04-28 19:40 | 20.49684 | 119.33919 | 39904 ft | 475 kts | 228° |
| 2026-04-28 19:40 | 20.45015 | 119.28927 | 39918 ft | 475 kts | 228° |
| 2026-04-28 19:41 | 20.40348 | 119.23941 | 39902 ft | 475 kts | 228° |
| 2026-04-28 19:41 | 20.35685 | 119.18965 | 39895 ft | 474 kts | 228° |
| 2026-04-28 19:42 | 20.31010 | 119.13980 | 39901 ft | 474 kts | 228° |
| 2026-04-28 19:42 | 20.27136 | 119.09852 | 39913 ft | 473 kts | 228° |
| 2026-04-28 19:43 | 20.21698 | 119.04064 | 39914 ft | 473 kts | 228° |
| 2026-04-28 19:43 | 20.17076 | 118.99148 | 39912 ft | 472 kts | 228° |
| 2026-04-28 19:44 | 20.12396 | 118.94176 | 39893 ft | 472 kts | 228° |
| 2026-04-28 19:44 | 20.07777 | 118.89273 | 39896 ft | 472 kts | 228° |
| 2026-04-28 19:45 | 20.03137 | 118.84351 | 39908 ft | 471 kts | 228° |
| 2026-04-28 19:45 | 19.98492 | 118.79429 | 39908 ft | 471 kts | 228° |
| 2026-04-28 19:46 | 19.93854 | 118.74520 | 39904 ft | 471 kts | 228° |
| 2026-04-28 19:46 | 19.89211 | 118.69608 | 39903 ft | 470 kts | 228° |
| 2026-04-28 19:47 | 19.84565 | 118.64697 | 39903 ft | 471 kts | 228° |
| 2026-04-28 19:47 | 19.79923 | 118.59796 | 39904 ft | 471 kts | 228° |
| 2026-04-28 19:48 | 19.75309 | 118.54928 | 39905 ft | 471 kts | 228° |
| 2026-04-28 19:48 | 19.70654 | 118.50020 | 39901 ft | 471 kts | 228° |
| 2026-04-28 19:49 | 19.65991 | 118.45110 | 39904 ft | 471 kts | 228° |
| 2026-04-28 19:49 | 19.61335 | 118.40210 | 39898 ft | 472 kts | 228° |
| 2026-04-28 19:50 | 19.54364 | 118.32881 | 39901 ft | 472 kts | 228° |
| 2026-04-28 19:51 | 19.49692 | 118.27975 | 39903 ft | 473 kts | 228° |
| 2026-04-28 19:51 | 19.45019 | 118.23072 | 39904 ft | 473 kts | 228° |
| 2026-04-28 19:52 | 19.40338 | 118.18164 | 39904 ft | 473 kts | 228° |
| 2026-04-28 19:52 | 19.35657 | 118.13260 | 39903 ft | 473 kts | 228° |
| 2026-04-28 19:53 | 19.30972 | 118.08356 | 39900 ft | 473 kts | 228° |
| 2026-04-28 19:53 | 19.26290 | 118.03452 | 39895 ft | 473 kts | 228° |
| 2026-04-28 19:54 | 19.21611 | 117.98553 | 39897 ft | 473 kts | 227° |
| 2026-04-28 19:54 | 19.17719 | 117.94481 | 39897 ft | 473 kts | 227° |
| 2026-04-28 19:55 | 19.12273 | 117.88788 | 39895 ft | 473 kts | 227° |
| 2026-04-28 19:55 | 19.08356 | 117.84696 | 39897 ft | 473 kts | 227° |
| 2026-04-28 19:56 | 19.03698 | 117.79834 | 39902 ft | 472 kts | 227° |
| 2026-04-28 19:56 | 18.99018 | 117.74963 | 39900 ft | 472 kts | 227° |
| 2026-04-28 19:57 | 18.94336 | 117.70099 | 39898 ft | 472 kts | 227° |
| 2026-04-28 19:57 | 18.89654 | 117.65239 | 39895 ft | 471 kts | 227° |
| 2026-04-28 19:58 | 18.84978 | 117.60385 | 39896 ft | 471 kts | 227° |
| 2026-04-28 19:58 | 18.80322 | 117.55557 | 39899 ft | 471 kts | 227° |
| 2026-04-28 19:59 | 18.75644 | 117.50709 | 39899 ft | 471 kts | 227° |
| 2026-04-28 19:59 | 18.70963 | 117.45862 | 39898 ft | 471 kts | 227° |
| 2026-04-28 20:00 | 18.66279 | 117.41017 | 39898 ft | 471 kts | 227° |
| 2026-04-28 20:00 | 18.61620 | 117.36200 | 39896 ft | 472 kts | 227° |
| 2026-04-28 20:01 | 18.56934 | 117.31360 | 39900 ft | 472 kts | 227° |
| 2026-04-28 20:01 | 18.52238 | 117.26514 | 39898 ft | 472 kts | 227° |
| 2026-04-28 20:02 | 18.47543 | 117.21673 | 39900 ft | 472 kts | 227° |
| 2026-04-28 20:02 | 18.42844 | 117.16831 | 39900 ft | 472 kts | 227° |
| 2026-04-28 20:03 | 18.38151 | 117.11999 | 39895 ft | 472 kts | 227° |
| 2026-04-28 20:03 | 18.33454 | 117.07167 | 39906 ft | 471 kts | 227° |
| 2026-04-28 20:04 | 18.28760 | 117.02343 | 39902 ft | 471 kts | 227° |
| 2026-04-28 20:04 | 18.24093 | 116.97550 | 39898 ft | 471 kts | 227° |
| 2026-04-28 20:05 | 18.19399 | 116.92732 | 39896 ft | 471 kts | 227° |
| 2026-04-28 20:05 | 18.14711 | 116.87925 | 39895 ft | 471 kts | 227° |
| 2026-04-28 20:06 | 18.10019 | 116.83117 | 39907 ft | 470 kts | 227° |
| 2026-04-28 20:06 | 18.05360 | 116.78347 | 39898 ft | 470 kts | 226° |
| 2026-04-28 20:07 | 18.00674 | 116.73553 | 39894 ft | 470 kts | 226° |
| 2026-04-28 20:07 | 17.95994 | 116.68769 | 39899 ft | 469 kts | 226° |
| 2026-04-28 20:08 | 17.91305 | 116.63979 | 39894 ft | 469 kts | 226° |
| 2026-04-28 20:08 | 17.86664 | 116.59242 | 39900 ft | 468 kts | 226° |
| 2026-04-28 20:09 | 17.85369 | 116.57920 | 39893 ft | 468 kts | 226° |
| 2026-04-28 20:09 | 17.80700 | 116.53157 | 39897 ft | 468 kts | 226° |
| 2026-04-28 20:10 | 17.76030 | 116.48401 | 39895 ft | 467 kts | 226° |
| 2026-04-28 20:10 | 17.71357 | 116.43649 | 39904 ft | 467 kts | 226° |
| 2026-04-28 20:11 | 17.66689 | 116.38904 | 39899 ft | 467 kts | 226° |
| 2026-04-28 20:11 | 17.62018 | 116.34158 | 39896 ft | 467 kts | 226° |
| 2026-04-28 20:12 | 17.57350 | 116.29418 | 39896 ft | 467 kts | 226° |
| 2026-04-28 20:12 | 17.52708 | 116.24708 | 39895 ft | 467 kts | 226° |
| 2026-04-28 20:13 | 17.48031 | 116.19966 | 39898 ft | 468 kts | 226° |
| 2026-04-28 20:13 | 17.43348 | 116.15222 | 39898 ft | 468 kts | 226° |
| 2026-04-28 20:14 | 17.38662 | 116.10478 | 39898 ft | 469 kts | 226° |
| 2026-04-28 20:14 | 17.33969 | 116.05730 | 39899 ft | 469 kts | 226° |
| 2026-04-28 20:15 | 17.29271 | 116.00982 | 39895 ft | 469 kts | 226° |
| 2026-04-28 20:15 | 17.24604 | 115.96268 | 39894 ft | 470 kts | 226° |
| 2026-04-28 20:16 | 17.19894 | 115.91515 | 39892 ft | 470 kts | 226° |
| 2026-04-28 20:16 | 17.15187 | 115.86767 | 39893 ft | 470 kts | 226° |
| 2026-04-28 20:17 | 17.10476 | 115.82020 | 39894 ft | 470 kts | 226° |
| 2026-04-28 20:17 | 17.05760 | 115.77270 | 39896 ft | 471 kts | 226° |
| 2026-04-28 20:18 | 17.01041 | 115.72522 | 39896 ft | 471 kts | 226° |
| 2026-04-28 20:18 | 16.96323 | 115.67777 | 39895 ft | 471 kts | 226° |
| 2026-04-28 20:19 | 16.91597 | 115.63028 | 39893 ft | 471 kts | 226° |
| 2026-04-28 20:19 | 16.86869 | 115.58282 | 39893 ft | 471 kts | 226° |
| 2026-04-28 20:20 | 16.82173 | 115.53570 | 39895 ft | 471 kts | 226° |
| 2026-04-28 20:20 | 16.77442 | 115.48826 | 39894 ft | 471 kts | 226° |
| 2026-04-28 20:21 | 16.72712 | 115.44087 | 39918 ft | 473 kts | 226° |
| 2026-04-28 20:21 | 16.67958 | 115.39327 | 40123 ft | 473 kts | 226° |
| 2026-04-28 20:21 | 16.65580 | 115.36948 | 40256 ft | 472 kts | 226° |
| 2026-04-28 20:22 | 16.63208 | 115.34576 | 40380 ft | 472 kts | 226° |
| 2026-04-28 20:22 | 16.58468 | 115.29837 | 40558 ft | 472 kts | 226° |
| 2026-04-28 20:22 | 16.56097 | 115.27468 | 40691 ft | 471 kts | 226° |
| 2026-04-28 20:23 | 16.53730 | 115.25104 | 40795 ft | 471 kts | 226° |
| 2026-04-28 20:23 | 16.49001 | 115.20383 | 40981 ft | 471 kts | 226° |
| 2026-04-28 20:24 | 16.44298 | 115.15691 | 41179 ft | 470 kts | 226° |
| 2026-04-28 20:24 | 16.41939 | 115.13339 | 41280 ft | 470 kts | 226° |
| 2026-04-28 20:24 | 16.39573 | 115.10981 | 41343 ft | 470 kts | 226° |
| 2026-04-28 20:25 | 16.34845 | 115.06271 | 41499 ft | 470 kts | 226° |
| 2026-04-28 20:25 | 16.30113 | 115.01560 | 41645 ft | 470 kts | 226° |
| 2026-04-28 20:26 | 16.25389 | 114.96861 | 41783 ft | 470 kts | 226° |
| 2026-04-28 20:26 | 16.20658 | 114.92158 | 41932 ft | 470 kts | 226° |
| 2026-04-28 20:27 | 16.15960 | 114.87491 | 42056 ft | 470 kts | 226° |
| 2026-04-28 20:27 | 16.11228 | 114.82794 | 42208 ft | 469 kts | 226° |
| 2026-04-28 20:28 | 16.06507 | 114.78110 | 42282 ft | 470 kts | 226° |
| 2026-04-28 20:28 | 16.01771 | 114.73415 | 42385 ft | 470 kts | 226° |
| 2026-04-28 20:29 | 15.97036 | 114.68725 | 42491 ft | 470 kts | 226° |
| 2026-04-28 20:29 | 15.92335 | 114.64071 | 42590 ft | 470 kts | 225° |
| 2026-04-28 20:30 | 15.87592 | 114.59378 | 42653 ft | 470 kts | 225° |
| 2026-04-28 20:30 | 15.82846 | 114.54686 | 42776 ft | 469 kts | 225° |
| 2026-04-28 20:31 | 15.78121 | 114.50019 | 42889 ft | 467 kts | 225° |
| 2026-04-28 20:31 | 15.73409 | 114.45367 | 42886 ft | 467 kts | 225° |
| 2026-04-28 20:32 | 15.68735 | 114.40755 | 42888 ft | 466 kts | 225° |
| 2026-04-28 20:32 | 15.64045 | 114.36131 | 42888 ft | 465 kts | 225° |
| 2026-04-28 20:33 | 15.59360 | 114.31514 | 42886 ft | 464 kts | 225° |
| 2026-04-28 20:33 | 15.54685 | 114.26911 | 42890 ft | 463 kts | 225° |
| 2026-04-28 20:34 | 15.50011 | 114.22311 | 42887 ft | 462 kts | 225° |
| 2026-04-28 20:34 | 15.45345 | 114.17723 | 42887 ft | 462 kts | 225° |
| 2026-04-28 20:35 | 15.40711 | 114.13168 | 42885 ft | 461 kts | 225° |
| 2026-04-28 20:35 | 15.36051 | 114.08590 | 42887 ft | 461 kts | 225° |
| 2026-04-28 20:36 | 15.31402 | 114.04026 | 42889 ft | 460 kts | 225° |
| 2026-04-28 20:36 | 15.26686 | 113.99537 | 42886 ft | 461 kts | 221° |
| 2026-04-28 20:37 | 15.21532 | 113.95634 | 42887 ft | 462 kts | 217° |
| 2026-04-28 20:37 | 15.16282 | 113.91792 | 42886 ft | 462 kts | 217° |
| 2026-04-28 20:38 | 15.11052 | 113.87940 | 42880 ft | 462 kts | 218° |
| 2026-04-28 20:38 | 15.05825 | 113.84068 | 42881 ft | 462 kts | 218° |
| 2026-04-28 20:39 | 15.04316 | 113.82949 | 42886 ft | 461 kts | 218° |
| 2026-04-28 20:39 | 14.99096 | 113.79078 | 42883 ft | 461 kts | 218° |
| 2026-04-28 20:40 | 14.93877 | 113.75211 | 42879 ft | 461 kts | 218° |
| 2026-04-28 20:40 | 14.88655 | 113.71346 | 42885 ft | 461 kts | 218° |
| 2026-04-28 20:41 | 14.83464 | 113.67505 | 42885 ft | 462 kts | 218° |
| 2026-04-28 20:41 | 14.78232 | 113.63637 | 42883 ft | 462 kts | 218° |
| 2026-04-28 20:42 | 14.73006 | 113.59776 | 42887 ft | 462 kts | 218° |
| 2026-04-28 20:42 | 14.67779 | 113.55916 | 42883 ft | 462 kts | 218° |
| 2026-04-28 20:43 | 14.62552 | 113.52058 | 42879 ft | 462 kts | 218° |
| 2026-04-28 20:43 | 14.57327 | 113.48203 | 42882 ft | 462 kts | 218° |
| 2026-04-28 20:44 | 14.52981 | 113.44998 | 42882 ft | 462 kts | 218° |
| 2026-04-28 20:44 | 14.46901 | 113.40517 | 42882 ft | 462 kts | 218° |
| 2026-04-28 20:45 | 14.41675 | 113.36661 | 42883 ft | 462 kts | 218° |
| 2026-04-28 20:45 | 14.37298 | 113.33431 | 42886 ft | 462 kts | 218° |
| 2026-04-28 20:46 | 14.32064 | 113.29570 | 42886 ft | 462 kts | 218° |
| 2026-04-28 20:46 | 14.26870 | 113.25742 | 42883 ft | 462 kts | 218° |
| 2026-04-28 20:47 | 14.21640 | 113.21889 | 42883 ft | 462 kts | 218° |
| 2026-04-28 20:47 | 14.16406 | 113.18036 | 42886 ft | 462 kts | 218° |
| 2026-04-28 20:48 | 14.11176 | 113.14187 | 42885 ft | 462 kts | 218° |
| 2026-04-28 20:48 | 14.05939 | 113.10335 | 42886 ft | 462 kts | 218° |
| 2026-04-28 20:49 | 14.00971 | 113.06210 | 42873 ft | 456 kts | 233° |
| 2026-04-28 20:49 | 13.99316 | 113.03446 | 42894 ft | 453 kts | 246° |
| 2026-04-28 20:49 | 13.98234 | 113.00406 | 42878 ft | 454 kts | 256° |
| 2026-04-28 20:49 | 13.97824 | 112.97194 | 42881 ft | 452 kts | 268° |
| 2026-04-28 20:50 | 13.97835 | 112.93957 | 42885 ft | 453 kts | 269° |
| 2026-04-28 20:50 | 13.97943 | 112.87453 | 42883 ft | 454 kts | 269° |
| 2026-04-28 20:51 | 13.98016 | 112.80938 | 42884 ft | 455 kts | 269° |
| 2026-04-28 20:51 | 13.98039 | 112.74453 | 42883 ft | 456 kts | 268° |
| 2026-04-28 20:52 | 13.98042 | 112.67922 | 42882 ft | 456 kts | 268° |
| 2026-04-28 20:52 | 13.98040 | 112.61374 | 42882 ft | 457 kts | 268° |
| 2026-04-28 20:53 | 13.98038 | 112.51550 | 42882 ft | 458 kts | 268° |
| 2026-04-28 20:53 | 13.98035 | 112.44991 | 42887 ft | 458 kts | 268° |
| 2026-04-28 20:54 | 13.98030 | 112.38425 | 42881 ft | 458 kts | 268° |
| 2026-04-28 20:54 | 13.98024 | 112.31862 | 42881 ft | 459 kts | 268° |
| 2026-04-28 20:55 | 13.98016 | 112.25334 | 42883 ft | 459 kts | 268° |
| 2026-04-28 20:55 | 13.98006 | 112.18759 | 42882 ft | 459 kts | 268° |
| 2026-04-28 20:56 | 13.97994 | 112.12174 | 42883 ft | 459 kts | 268° |
| 2026-04-28 20:56 | 13.97980 | 112.05595 | 42881 ft | 459 kts | 268° |
| 2026-04-28 20:57 | 13.97965 | 111.99016 | 42884 ft | 459 kts | 268° |
| 2026-04-28 20:57 | 13.97948 | 111.92439 | 42883 ft | 459 kts | 268° |
| 2026-04-28 20:58 | 13.97929 | 111.85904 | 42883 ft | 460 kts | 268° |
| 2026-04-28 20:58 | 13.97909 | 111.79323 | 42882 ft | 460 kts | 268° |
| 2026-04-28 20:59 | 13.97886 | 111.72740 | 42882 ft | 460 kts | 268° |
| 2026-04-28 20:59 | 13.97862 | 111.66158 | 42882 ft | 460 kts | 268° |
| 2026-04-28 21:00 | 13.97836 | 111.59575 | 42883 ft | 460 kts | 268° |
| 2026-04-28 21:00 | 13.97809 | 111.52982 | 42882 ft | 460 kts | 268° |
| 2026-04-28 21:01 | 13.97780 | 111.46384 | 42883 ft | 460 kts | 268° |
| 2026-04-28 21:01 | 13.97750 | 111.39839 | 42880 ft | 460 kts | 268° |
| 2026-04-28 21:02 | 13.97718 | 111.33237 | 42885 ft | 460 kts | 268° |
| 2026-04-28 21:02 | 13.97685 | 111.26642 | 42871 ft | 460 kts | 267° |
| 2026-04-28 21:03 | 13.97650 | 111.20053 | 42878 ft | 460 kts | 267° |
| 2026-04-28 21:03 | 13.97613 | 111.13496 | 42885 ft | 460 kts | 267° |
| 2026-04-28 21:04 | 13.97574 | 111.06862 | 42875 ft | 460 kts | 267° |
| 2026-04-28 21:04 | 13.97534 | 111.00313 | 42877 ft | 460 kts | 267° |
| 2026-04-28 21:05 | 13.97492 | 110.93712 | 42873 ft | 460 kts | 267° |
| 2026-04-28 21:05 | 13.97448 | 110.87117 | 42877 ft | 460 kts | 267° |
| 2026-04-28 21:06 | 13.97402 | 110.80529 | 42875 ft | 460 kts | 267° |
| 2026-04-28 21:06 | 13.97354 | 110.73938 | 42880 ft | 460 kts | 267° |
| 2026-04-28 21:07 | 13.97305 | 110.67349 | 42869 ft | 460 kts | 267° |
| 2026-04-28 21:07 | 13.97254 | 110.60800 | 42870 ft | 460 kts | 267° |
| 2026-04-28 21:08 | 13.97202 | 110.54211 | 42863 ft | 460 kts | 267° |
| 2026-04-28 21:08 | 13.97166 | 110.49836 | 42870 ft | 460 kts | 267° |
| 2026-04-28 21:09 | 13.97127 | 110.45308 | 42869 ft | 460 kts | 267° |
| 2026-04-28 21:09 | 13.97070 | 110.38725 | 42866 ft | 460 kts | 267° |
| 2026-04-28 21:10 | 13.97012 | 110.32184 | 42869 ft | 460 kts | 267° |
| 2026-04-28 21:10 | 13.96952 | 110.25598 | 42867 ft | 460 kts | 267° |
| 2026-04-28 21:11 | 13.96889 | 110.19005 | 42866 ft | 460 kts | 267° |
| 2026-04-28 21:11 | 13.96825 | 110.12419 | 42866 ft | 460 kts | 267° |
| 2026-04-28 21:12 | 13.96760 | 110.05831 | 42856 ft | 460 kts | 267° |
| 2026-04-28 21:12 | 13.96693 | 109.99239 | 42858 ft | 460 kts | 267° |
| 2026-04-28 21:13 | 13.96639 | 109.92649 | 42862 ft | 460 kts | 267° |
| 2026-04-28 21:13 | 13.96591 | 109.86061 | 42863 ft | 460 kts | 267° |
| 2026-04-28 21:14 | 13.96540 | 109.79471 | 42860 ft | 460 kts | 267° |
| 2026-04-28 21:14 | 13.96485 | 109.72913 | 42855 ft | 460 kts | 267° |
| 2026-04-28 21:15 | 13.96428 | 109.66311 | 42852 ft | 461 kts | 267° |
| 2026-04-28 21:15 | 13.96370 | 109.59714 | 42860 ft | 461 kts | 267° |
| 2026-04-28 21:16 | 13.96309 | 109.53106 | 42858 ft | 461 kts | 267° |
| 2026-04-28 21:16 | 13.96239 | 109.46555 | 42853 ft | 461 kts | 267° |
| 2026-04-28 21:17 | 13.96158 | 109.39951 | 42853 ft | 461 kts | 267° |
| 2026-04-28 21:17 | 13.96075 | 109.33349 | 42863 ft | 461 kts | 267° |
| 2026-04-28 21:18 | 13.95993 | 109.26744 | 42859 ft | 461 kts | 267° |
| 2026-04-28 21:18 | 13.95909 | 109.20142 | 42865 ft | 461 kts | 267° |
| 2026-04-28 21:19 | 13.95823 | 109.13573 | 42860 ft | 462 kts | 267° |
| 2026-04-28 21:19 | 13.95736 | 109.06962 | 42872 ft | 461 kts | 267° |
| 2026-04-28 21:20 | 13.95841 | 109.00351 | 42881 ft | 462 kts | 270° |
| 2026-04-28 21:20 | 13.96189 | 108.93737 | 42883 ft | 462 kts | 271° |
| 2026-04-28 21:21 | 13.96547 | 108.87128 | 42879 ft | 462 kts | 270° |
| 2026-04-28 21:21 | 13.96883 | 108.80519 | 42886 ft | 462 kts | 270° |
| 2026-04-28 21:22 | 13.97209 | 108.73915 | 42900 ft | 461 kts | 270° |
| 2026-04-28 21:22 | 13.97475 | 108.68425 | 42891 ft | 462 kts | 270° |
| 2026-04-28 21:23 | 13.97846 | 108.60751 | 42902 ft | 462 kts | 270° |
| 2026-04-28 21:23 | 13.98166 | 108.54145 | 42903 ft | 462 kts | 270° |
| 2026-04-28 21:24 | 13.98483 | 108.47533 | 42919 ft | 462 kts | 270° |
| 2026-04-28 21:24 | 13.98799 | 108.40920 | 42898 ft | 462 kts | 270° |
| 2026-04-28 21:25 | 13.99113 | 108.34308 | 42926 ft | 462 kts | 270° |
| 2026-04-28 21:25 | 13.99425 | 108.27699 | 42913 ft | 463 kts | 270° |
| 2026-04-28 21:26 | 13.99735 | 108.21081 | 42926 ft | 463 kts | 270° |
| 2026-04-28 21:26 | 14.00044 | 108.14463 | 42924 ft | 463 kts | 270° |
| 2026-04-28 21:27 | 14.00338 | 108.07875 | 42922 ft | 462 kts | 268° |
| 2026-04-28 21:27 | 14.00068 | 108.04592 | 42913 ft | 458 kts | 257° |
| 2026-04-28 21:27 | 13.99253 | 108.01431 | 42939 ft | 456 kts | 250° |
| 2026-04-28 21:28 | 13.96411 | 107.95626 | 42937 ft | 454 kts | 236° |
| 2026-04-28 21:28 | 13.92867 | 107.90267 | 42919 ft | 456 kts | 236° |
| 2026-04-28 21:29 | 13.89269 | 107.84835 | 42910 ft | 456 kts | 236° |
| 2026-04-28 21:29 | 13.85758 | 107.79440 | 42904 ft | 457 kts | 236° |
| 2026-04-28 21:30 | 13.82228 | 107.73978 | 42897 ft | 458 kts | 236° |
| 2026-04-28 21:30 | 13.78695 | 107.68514 | 42895 ft | 458 kts | 236° |
| 2026-04-28 21:31 | 13.75163 | 107.63057 | 42884 ft | 459 kts | 236° |
| 2026-04-28 21:31 | 13.72217 | 107.58511 | 42883 ft | 459 kts | 236° |
| 2026-04-28 21:32 | 13.68675 | 107.53047 | 42878 ft | 459 kts | 236° |
| 2026-04-28 21:32 | 13.64839 | 107.47784 | 42878 ft | 460 kts | 229° |
| 2026-04-28 21:33 | 13.60527 | 107.42927 | 42876 ft | 460 kts | 228° |
| 2026-04-28 21:33 | 13.56205 | 107.38092 | 42877 ft | 460 kts | 228° |
| 2026-04-28 21:34 | 13.51888 | 107.33231 | 42876 ft | 461 kts | 228° |
| 2026-04-28 21:34 | 13.47577 | 107.28358 | 42873 ft | 461 kts | 229° |
| 2026-04-28 21:35 | 13.43267 | 107.23483 | 42872 ft | 461 kts | 229° |
| 2026-04-28 21:35 | 13.38980 | 107.18637 | 42872 ft | 461 kts | 229° |
| 2026-04-28 21:36 | 13.34663 | 107.13762 | 42884 ft | 461 kts | 229° |
| 2026-04-28 21:36 | 13.30346 | 107.08889 | 42866 ft | 461 kts | 229° |
| 2026-04-28 21:37 | 13.26029 | 107.04019 | 42867 ft | 461 kts | 229° |
| 2026-04-28 21:37 | 13.21705 | 106.99144 | 42869 ft | 461 kts | 229° |
| 2026-04-28 21:38 | 13.17412 | 106.94306 | 42880 ft | 461 kts | 229° |
| 2026-04-28 21:38 | 13.14527 | 106.91057 | 42875 ft | 461 kts | 229° |
| 2026-04-28 21:39 | 13.11752 | 106.87932 | 42869 ft | 461 kts | 228° |
| 2026-04-28 21:39 | 13.07429 | 106.83068 | 42863 ft | 461 kts | 229° |
| 2026-04-28 21:40 | 13.03108 | 106.78208 | 42876 ft | 461 kts | 229° |
| 2026-04-28 21:40 | 12.98813 | 106.73380 | 42880 ft | 461 kts | 229° |
| 2026-04-28 21:41 | 12.94486 | 106.68519 | 42864 ft | 461 kts | 228° |
| 2026-04-28 21:41 | 12.90162 | 106.63664 | 42878 ft | 461 kts | 229° |
| 2026-04-28 21:42 | 12.85833 | 106.58805 | 42880 ft | 461 kts | 228° |
| 2026-04-28 21:42 | 12.81503 | 106.53949 | 42874 ft | 461 kts | 228° |
| 2026-04-28 21:43 | 12.77168 | 106.49089 | 42873 ft | 461 kts | 228° |
| 2026-04-28 21:43 | 12.72832 | 106.44232 | 42867 ft | 461 kts | 228° |
| 2026-04-28 21:44 | 12.68495 | 106.39375 | 42866 ft | 461 kts | 228° |
| 2026-04-28 21:44 | 12.64187 | 106.34554 | 42867 ft | 462 kts | 228° |
| 2026-04-28 21:45 | 12.59845 | 106.29697 | 42866 ft | 462 kts | 228° |
| 2026-04-28 21:45 | 12.55503 | 106.24843 | 42863 ft | 462 kts | 228° |
| 2026-04-28 21:46 | 12.51158 | 106.19988 | 42858 ft | 462 kts | 228° |
| 2026-04-28 21:46 | 12.46812 | 106.15135 | 42864 ft | 463 kts | 228° |
| 2026-04-28 21:47 | 12.42488 | 106.10308 | 42866 ft | 463 kts | 228° |
| 2026-04-28 21:47 | 12.38140 | 106.05458 | 42864 ft | 463 kts | 228° |
| 2026-04-28 21:48 | 12.33784 | 106.00601 | 42858 ft | 463 kts | 228° |
| 2026-04-28 21:48 | 12.29426 | 105.95744 | 42861 ft | 463 kts | 228° |
| 2026-04-28 21:49 | 12.25063 | 105.90884 | 42856 ft | 464 kts | 228° |
| 2026-04-28 21:49 | 12.20703 | 105.86031 | 42856 ft | 464 kts | 228° |
| 2026-04-28 21:50 | 12.16332 | 105.81168 | 42861 ft | 464 kts | 228° |
| 2026-04-28 21:50 | 12.11956 | 105.76301 | 42857 ft | 464 kts | 228° |
| 2026-04-28 21:51 | 12.07613 | 105.71474 | 42859 ft | 465 kts | 228° |
| 2026-04-28 21:51 | 12.03232 | 105.66606 | 42854 ft | 465 kts | 228° |
| 2026-04-28 21:52 | 11.98853 | 105.61742 | 42859 ft | 465 kts | 228° |
| 2026-04-28 21:52 | 11.94467 | 105.56874 | 42862 ft | 465 kts | 228° |
| 2026-04-28 21:53 | 11.90079 | 105.52009 | 42853 ft | 466 kts | 228° |
| 2026-04-28 21:53 | 11.85683 | 105.47144 | 42859 ft | 466 kts | 228° |
| 2026-04-28 21:54 | 11.81316 | 105.42310 | 42854 ft | 466 kts | 228° |
| 2026-04-28 21:54 | 11.76921 | 105.37446 | 42855 ft | 466 kts | 228° |
| 2026-04-28 21:55 | 11.72525 | 105.32584 | 42859 ft | 466 kts | 228° |
| 2026-04-28 21:55 | 11.68127 | 105.27722 | 42862 ft | 466 kts | 228° |
| 2026-04-28 21:56 | 11.63732 | 105.22866 | 42861 ft | 466 kts | 228° |
| 2026-04-28 21:56 | 11.59330 | 105.18003 | 42863 ft | 466 kts | 228° |
| 2026-04-28 21:57 | 11.54924 | 105.13140 | 42862 ft | 466 kts | 228° |
| 2026-04-28 21:57 | 11.50550 | 105.08314 | 42863 ft | 466 kts | 228° |
| 2026-04-28 21:58 | 11.46141 | 105.03451 | 42864 ft | 467 kts | 228° |
| 2026-04-28 21:58 | 11.41733 | 104.98591 | 42863 ft | 467 kts | 228° |
| 2026-04-28 21:59 | 11.37322 | 104.93731 | 42860 ft | 467 kts | 228° |
| 2026-04-28 22:00 | 11.31894 | 104.86514 | 42860 ft | 466 kts | 239° |
| 2026-04-28 22:00 | 11.28564 | 104.80840 | 42859 ft | 466 kts | 239° |
| 2026-04-28 22:01 | 11.25234 | 104.75167 | 42859 ft | 466 kts | 239° |
| 2026-04-28 22:01 | 11.21898 | 104.69536 | 42858 ft | 467 kts | 239° |
| 2026-04-28 22:02 | 11.18529 | 104.63874 | 42856 ft | 467 kts | 239° |
| 2026-04-28 22:02 | 11.15153 | 104.58207 | 42858 ft | 468 kts | 239° |
| 2026-04-28 22:03 | 11.11774 | 104.52535 | 42857 ft | 468 kts | 239° |
| 2026-04-28 22:03 | 11.08399 | 104.46872 | 42852 ft | 468 kts | 239° |
| 2026-04-28 22:04 | 11.05016 | 104.41196 | 42864 ft | 468 kts | 239° |
| 2026-04-28 22:04 | 11.01653 | 104.35560 | 42860 ft | 469 kts | 239° |
| 2026-04-28 22:05 | 10.98264 | 104.29881 | 42857 ft | 469 kts | 239° |
| 2026-04-28 22:05 | 10.94876 | 104.24206 | 42854 ft | 469 kts | 239° |
| 2026-04-28 22:06 | 10.91485 | 104.18529 | 42860 ft | 470 kts | 239° |
| 2026-04-28 22:06 | 10.88087 | 104.12836 | 42854 ft | 470 kts | 239° |
| 2026-04-28 22:07 | 10.84713 | 104.07184 | 42860 ft | 470 kts | 239° |
| 2026-04-28 22:07 | 10.81311 | 104.01487 | 42851 ft | 471 kts | 239° |
| 2026-04-28 22:08 | 10.77911 | 103.95798 | 42856 ft | 471 kts | 239° |
| 2026-04-28 22:08 | 10.74509 | 103.90108 | 42871 ft | 471 kts | 239° |
| 2026-04-28 22:09 | 10.73413 | 103.88276 | 42849 ft | 472 kts | 239° |
| 2026-04-28 22:09 | 10.70022 | 103.82608 | 42868 ft | 472 kts | 239° |
| 2026-04-28 22:10 | 10.66610 | 103.76907 | 42849 ft | 472 kts | 239° |
| 2026-04-28 22:10 | 10.63194 | 103.71202 | 42846 ft | 472 kts | 239° |
| 2026-04-28 22:11 | 10.59772 | 103.65496 | 42849 ft | 472 kts | 239° |
| 2026-04-28 22:11 | 10.55898 | 103.60088 | 42872 ft | 473 kts | 233° |
| 2026-04-28 22:12 | 10.51768 | 103.54858 | 42866 ft | 474 kts | 232° |
| 2026-04-28 22:12 | 10.47642 | 103.49626 | 42865 ft | 474 kts | 233° |
| 2026-04-28 22:13 | 10.43558 | 103.44405 | 42842 ft | 475 kts | 233° |
| 2026-04-28 22:13 | 10.39450 | 103.39138 | 42861 ft | 475 kts | 233° |
| 2026-04-28 22:14 | 10.35332 | 103.33860 | 42864 ft | 476 kts | 233° |
| 2026-04-28 22:14 | 10.31217 | 103.28591 | 42860 ft | 476 kts | 233° |
| 2026-04-28 22:15 | 10.27099 | 103.23322 | 42841 ft | 477 kts | 233° |
| 2026-04-28 22:15 | 10.23003 | 103.18082 | 42860 ft | 477 kts | 233° |
| 2026-04-28 22:16 | 10.18877 | 103.12807 | 42862 ft | 477 kts | 233° |
| 2026-04-28 22:16 | 10.14739 | 103.07518 | 42844 ft | 478 kts | 233° |
| 2026-04-28 22:17 | 10.10606 | 103.02237 | 42857 ft | 478 kts | 233° |
| 2026-04-28 22:17 | 10.06459 | 102.96941 | 42860 ft | 478 kts | 233° |
| 2026-04-28 22:18 | 10.03016 | 102.92548 | 42866 ft | 479 kts | 233° |
| 2026-04-28 22:18 | 9.98874 | 102.87262 | 42867 ft | 479 kts | 233° |
| 2026-04-28 22:19 | 9.94050 | 102.81107 | 42864 ft | 479 kts | 233° |
| 2026-04-28 22:19 | 9.90566 | 102.76662 | 42864 ft | 480 kts | 233° |
| 2026-04-28 22:20 | 9.86440 | 102.71399 | 42859 ft | 480 kts | 233° |
| 2026-04-28 22:20 | 9.82280 | 102.66097 | 42864 ft | 480 kts | 233° |
| 2026-04-28 22:21 | 9.78111 | 102.60788 | 42856 ft | 481 kts | 233° |
| 2026-04-28 22:21 | 9.73945 | 102.55487 | 42860 ft | 481 kts | 233° |
| 2026-04-28 22:22 | 9.69779 | 102.50184 | 42862 ft | 481 kts | 233° |
| 2026-04-28 22:22 | 9.65604 | 102.44873 | 42861 ft | 482 kts | 233° |
| 2026-04-28 22:23 | 9.61428 | 102.39560 | 42858 ft | 482 kts | 233° |
| 2026-04-28 22:23 | 9.57246 | 102.34243 | 42862 ft | 483 kts | 233° |
| 2026-04-28 22:24 | 9.53097 | 102.28939 | 42863 ft | 483 kts | 233° |
| 2026-04-28 22:24 | 9.48925 | 102.23594 | 42863 ft | 484 kts | 233° |
| 2026-04-28 22:25 | 9.44742 | 102.18240 | 42863 ft | 484 kts | 233° |
| 2026-04-28 22:25 | 9.40549 | 102.12878 | 42862 ft | 485 kts | 233° |
| 2026-04-28 22:26 | 9.36382 | 102.07551 | 42864 ft | 485 kts | 233° |
| 2026-04-28 22:26 | 9.32183 | 102.02185 | 42862 ft | 486 kts | 233° |
| 2026-04-28 22:27 | 9.27984 | 101.96822 | 42858 ft | 486 kts | 233° |
| 2026-04-28 22:27 | 9.23776 | 101.91444 | 42862 ft | 487 kts | 233° |
| 2026-04-28 22:28 | 9.19570 | 101.86066 | 42855 ft | 487 kts | 233° |
| 2026-04-28 22:28 | 9.15381 | 101.80713 | 42861 ft | 488 kts | 233° |
| 2026-04-28 22:29 | 9.11166 | 101.75329 | 42862 ft | 488 kts | 233° |
| 2026-04-28 22:29 | 9.06945 | 101.69939 | 42859 ft | 489 kts | 233° |
| 2026-04-28 22:30 | 9.02720 | 101.64546 | 42862 ft | 489 kts | 233° |
| 2026-04-28 22:30 | 8.98487 | 101.59143 | 42863 ft | 490 kts | 233° |
| 2026-04-28 22:31 | 8.94239 | 101.53755 | 42861 ft | 490 kts | 232° |
| 2026-04-28 22:31 | 8.89966 | 101.48370 | 42861 ft | 491 kts | 233° |
| 2026-04-28 22:32 | 8.85715 | 101.42964 | 42861 ft | 491 kts | 233° |
| 2026-04-28 22:32 | 8.81469 | 101.37551 | 42860 ft | 492 kts | 233° |
| 2026-04-28 22:33 | 8.77215 | 101.32133 | 42859 ft | 492 kts | 233° |
| 2026-04-28 22:33 | 8.72956 | 101.26716 | 42867 ft | 491 kts | 233° |
| 2026-04-28 22:34 | 8.68700 | 101.21307 | 42855 ft | 490 kts | 233° |
| 2026-04-28 22:34 | 8.64489 | 101.15955 | 42858 ft | 489 kts | 233° |
| 2026-04-28 22:35 | 8.60260 | 101.10581 | 42857 ft | 488 kts | 233° |
| 2026-04-28 22:35 | 8.56030 | 101.05205 | 42856 ft | 487 kts | 233° |
| 2026-04-28 22:36 | 8.51825 | 100.99830 | 42854 ft | 487 kts | 233° |
| 2026-04-28 22:36 | 8.47632 | 100.94469 | 42857 ft | 486 kts | 233° |
| 2026-04-28 22:37 | 8.43424 | 100.89112 | 42860 ft | 487 kts | 233° |
| 2026-04-28 22:37 | 8.39216 | 100.83803 | 42859 ft | 487 kts | 233° |
| 2026-04-28 22:38 | 8.34977 | 100.78459 | 42852 ft | 488 kts | 233° |
| 2026-04-28 22:38 | 8.30728 | 100.73097 | 42856 ft | 488 kts | 233° |
| 2026-04-28 22:39 | 8.26483 | 100.67739 | 42856 ft | 489 kts | 233° |
| 2026-04-28 22:39 | 8.22226 | 100.62367 | 42862 ft | 490 kts | 232° |
| 2026-04-28 22:40 | 8.17963 | 100.56990 | 42860 ft | 490 kts | 232° |
| 2026-04-28 22:40 | 8.13723 | 100.51644 | 42860 ft | 491 kts | 232° |
| 2026-04-28 22:41 | 8.09628 | 100.46143 | 42851 ft | 488 kts | 243° |
| 2026-04-28 22:41 | 8.08309 | 100.43002 | 42863 ft | 485 kts | 255° |
| 2026-04-28 22:41 | 8.07581 | 100.39686 | 42860 ft | 484 kts | 264° |
| 2026-04-28 22:42 | 8.07589 | 100.32930 | 42863 ft | 482 kts | 273° |
| 2026-04-28 22:42 | 8.07861 | 100.26163 | 42869 ft | 484 kts | 273° |
| 2026-04-28 22:43 | 8.08085 | 100.19356 | 42873 ft | 485 kts | 272° |
| 2026-04-28 22:43 | 8.08258 | 100.12529 | 42864 ft | 486 kts | 272° |
| 2026-04-28 22:44 | 8.08414 | 100.05744 | 42866 ft | 487 kts | 272° |
| 2026-04-28 22:44 | 8.08570 | 99.98894 | 42873 ft | 488 kts | 272° |
| 2026-04-28 22:45 | 8.08727 | 99.92065 | 42859 ft | 482 kts | 272° |
| 2026-04-28 22:45 | 8.08882 | 99.85347 | 42583 ft | 480 kts | 272° |
| 2026-04-28 22:45 | 8.08959 | 99.82005 | 42057 ft | 480 kts | 272° |
| 2026-04-28 22:46 | 8.09035 | 99.78656 | 41358 ft | 478 kts | 272° |
| 2026-04-28 22:46 | 8.09111 | 99.75310 | 40705 ft | 475 kts | 272° |
| 2026-04-28 22:46 | 8.09187 | 99.71984 | 40076 ft | 473 kts | 272° |
| 2026-04-28 22:46 | 8.09262 | 99.68677 | 39423 ft | 471 kts | 272° |
| 2026-04-28 22:47 | 8.09336 | 99.65366 | 38697 ft | 472 kts | 272° |
| 2026-04-28 22:47 | 8.09411 | 99.62046 | 37846 ft | 474 kts | 272° |
| 2026-04-28 22:47 | 8.09485 | 99.58712 | 37029 ft | 475 kts | 272° |
| 2026-04-28 22:47 | 8.09560 | 99.55378 | 36229 ft | 476 kts | 273° |
| 2026-04-28 22:48 | 8.09609 | 99.53161 | 35683 ft | 478 kts | 273° |
| 2026-04-28 22:48 | 8.09685 | 99.49835 | 34784 ft | 505 kts | 273° |
| 2026-04-28 22:48 | 8.09766 | 99.46266 | 33857 ft | 514 kts | 273° |
| 2026-04-28 22:49 | 8.09845 | 99.42658 | 32877 ft | 514 kts | 273° |
| 2026-04-28 22:49 | 8.09923 | 99.39046 | 31579 ft | 518 kts | 273° |
| 2026-04-28 22:49 | 8.10001 | 99.35407 | 30601 ft | 517 kts | 272° |
| 2026-04-28 22:49 | 8.10078 | 99.31791 | 29740 ft | 512 kts | 272° |
| 2026-04-28 22:50 | 8.10155 | 99.28212 | 28863 ft | 507 kts | 272° |
| 2026-04-28 22:50 | 8.10231 | 99.24666 | 28082 ft | 501 kts | 272° |
| 2026-04-28 22:50 | 8.10306 | 99.21178 | 27353 ft | 495 kts | 272° |
| 2026-04-28 22:50 | 8.10380 | 99.17718 | 26655 ft | 490 kts | 272° |
| 2026-04-28 22:51 | 8.10452 | 99.14337 | 25980 ft | 485 kts | 272° |
| 2026-04-28 22:51 | 8.10524 | 99.10955 | 25294 ft | 480 kts | 271° |
| 2026-04-28 22:51 | 8.10595 | 99.07600 | 24616 ft | 477 kts | 271° |
| 2026-04-28 22:51 | 8.10665 | 99.04268 | 23944 ft | 473 kts | 271° |
| 2026-04-28 22:52 | 8.10735 | 99.00955 | 23240 ft | 470 kts | 271° |
| 2026-04-28 22:52 | 8.10803 | 98.97664 | 22496 ft | 466 kts | 271° |
| 2026-04-28 22:52 | 8.10811 | 98.94411 | 21821 ft | 461 kts | 269° |
| 2026-04-28 22:52 | 8.10757 | 98.91201 | 21180 ft | 455 kts | 268° |
| 2026-04-28 22:53 | 8.10692 | 98.88019 | 20548 ft | 450 kts | 269° |
| 2026-04-28 22:53 | 8.10643 | 98.84876 | 19930 ft | 446 kts | 269° |
| 2026-04-28 22:53 | 8.10599 | 98.81761 | 19297 ft | 442 kts | 268° |
| 2026-04-28 22:53 | 8.10226 | 98.78707 | 18663 ft | 436 kts | 257° |
| 2026-04-28 22:54 | 8.09465 | 98.75799 | 18055 ft | 432 kts | 253° |
| 2026-04-28 22:54 | 8.08629 | 98.72896 | 17370 ft | 430 kts | 253° |
| 2026-04-28 22:54 | 8.07808 | 98.70008 | 16738 ft | 426 kts | 253° |
| 2026-04-28 22:54 | 8.07023 | 98.67135 | 16117 ft | 423 kts | 254° |
| 2026-04-28 22:55 | 8.06271 | 98.64279 | 15501 ft | 420 kts | 255° |
| 2026-04-28 22:55 | 8.05539 | 98.61439 | 14902 ft | 417 kts | 255° |
| 2026-04-28 22:55 | 8.04815 | 98.58615 | 14300 ft | 415 kts | 255° |
| 2026-04-28 22:55 | 8.04094 | 98.55804 | 13695 ft | 414 kts | 255° |
| 2026-04-28 22:56 | 8.03372 | 98.52999 | 13109 ft | 410 kts | 255° |
| 2026-04-28 22:56 | 8.02792 | 98.50222 | 12594 ft | 402 kts | 262° |
| 2026-04-28 22:56 | 8.02487 | 98.47437 | 12174 ft | 394 kts | 265° |
| 2026-04-28 22:56 | 8.02288 | 98.44708 | 11780 ft | 385 kts | 266° |
| 2026-04-28 22:57 | 8.02103 | 98.42043 | 11405 ft | 376 kts | 266° |
| 2026-04-28 22:57 | 8.01906 | 98.39438 | 11038 ft | 368 kts | 265° |
| 2026-04-28 22:57 | 8.01698 | 98.36923 | 10692 ft | 360 kts | 265° |
| 2026-04-28 22:57 | 8.01477 | 98.34430 | 10336 ft | 353 kts | 265° |
| 2026-04-28 22:58 | 8.01253 | 98.31991 | 9996 ft | 346 kts | 264° |
| 2026-04-28 22:58 | 8.01030 | 98.29596 | 9732 ft | 337 kts | 265° |
| 2026-04-28 22:58 | 8.00812 | 98.27282 | 9548 ft | 325 kts | 264° |
| 2026-04-28 22:58 | 8.00603 | 98.25065 | 9444 ft | 311 kts | 264° |
| 2026-04-28 22:59 | 8.00402 | 98.22936 | 9298 ft | 299 kts | 264° |
| 2026-04-28 22:59 | 8.00208 | 98.20882 | 9109 ft | 289 kts | 265° |
| 2026-04-28 22:59 | 8.00019 | 98.18871 | 8772 ft | 285 kts | 264° |
| 2026-04-28 22:59 | 7.99831 | 98.16886 | 8369 ft | 284 kts | 264° |
| 2026-04-28 23:00 | 7.99644 | 98.14905 | 7963 ft | 283 kts | 264° |
| 2026-04-28 23:00 | 7.99457 | 98.12931 | 7601 ft | 282 kts | 264° |
| 2026-04-28 23:00 | 7.99274 | 98.10990 | 7242 ft | 280 kts | 264° |
| 2026-04-28 23:00 | 7.99089 | 98.09045 | 6872 ft | 278 kts | 264° |
| 2026-04-28 23:01 | 7.98907 | 98.07116 | 6572 ft | 274 kts | 264° |
| 2026-04-28 23:01 | 7.99012 | 98.05253 | 6283 ft | 264 kts | 289° |
| 2026-04-28 23:01 | 7.99950 | 98.03709 | 6031 ft | 258 kts | 318° |
| 2026-04-28 23:01 | 8.01441 | 98.02723 | 5752 ft | 257 kts | 339° |
| 2026-04-28 23:02 | 8.03164 | 98.02338 | 5499 ft | 254 kts | 356° |
| 2026-04-28 23:02 | 8.04902 | 98.02184 | 5243 ft | 248 kts | 357° |
| 2026-04-28 23:02 | 8.06568 | 98.02321 | 4992 ft | 235 kts | 22° |
| 2026-04-28 23:02 | 8.07872 | 98.03229 | 4756 ft | 225 kts | 51° |
| 2026-04-28 23:03 | 8.08670 | 98.04543 | 4518 ft | 216 kts | 70° |
| 2026-04-28 23:03 | 8.08933 | 98.05999 | 4299 ft | 208 kts | 84° |
| 2026-04-28 23:03 | 8.09063 | 98.07449 | 4093 ft | 207 kts | 84° |
| 2026-04-28 23:03 | 8.09192 | 98.08904 | 3871 ft | 210 kts | 84° |
| 2026-04-28 23:04 | 8.09326 | 98.10371 | 3661 ft | 210 kts | 84° |
| 2026-04-28 23:04 | 8.09596 | 98.13303 | 3105 ft | 211 kts | 83° |
| 2026-04-28 23:04 | 8.09733 | 98.14776 | 2830 ft | 211 kts | 83° |
| 2026-04-28 23:05 | 8.09869 | 98.16244 | 2577 ft | 210 kts | 83° |
| 2026-04-28 23:05 | 8.10007 | 98.17704 | 2307 ft | 207 kts | 83° |
| 2026-04-28 23:05 | 8.10095 | 98.18649 | 2131 ft | 201 kts | 83° |
| 2026-04-28 23:05 | 8.10224 | 98.20023 | 1882 ft | 192 kts | 83° |
| 2026-04-28 23:06 | 8.10348 | 98.21337 | 1641 ft | 182 kts | 83° |
| 2026-04-28 23:06 | 8.10463 | 98.22562 | 1417 ft | 172 kts | 83° |
| 2026-04-28 23:06 | 8.10579 | 98.23779 | 1221 ft | 174 kts | 84° |
| 2026-04-28 23:06 | 8.10691 | 98.24978 | 1115 ft | 168 kts | 84° |
| 2026-04-28 23:07 | 8.10716 | 98.25243 | 1108 ft | 168 kts | 83° |
| 2026-04-28 23:07 | 8.10792 | 98.26042 | 1088 ft | 163 kts | 83° |
| 2026-04-28 23:07 | 8.10898 | 98.27111 | 873 ft | 146 kts | 83° |
| 2026-04-28 23:08 | 8.11018 | 98.28121 | 590 ft | 143 kts | 82° |
| 2026-04-28 23:08 | 8.11110 | 98.29104 | 380 ft | 139 kts | 84° |
| 2026-04-28 23:08 | 8.11196 | 98.30076 | 179 ft | 138 kts | 85° |
| 2026-04-28 23:08 | 8.11269 | 98.30988 | 95 ft | 121 kts | 84° |
| 2026-04-28 23:09 | 8.11330 | 98.31726 | 92 ft | 84 kts | 85° |
| 2026-04-28 23:09 | 8.11364 | 98.32127 | 94 ft | 37 kts | 85° |
| 2026-04-28 23:09 | 8.11346 | 98.32367 | 93 ft | 26 kts | 110° |
| 2026-04-28 23:09 | 8.11258 | 98.32395 | 91 ft | 15 kts | 241° |
| 2026-04-28 23:10 | 8.11243 | 98.32242 | 87 ft | 30 kts | 265° |
| 2026-04-28 23:10 | 8.11231 | 98.32113 | 89 ft | 17 kts | 264° |
| 2026-04-28 23:10 | 8.11218 | 98.31983 | 92 ft | 20 kts | 264° |
| 2026-04-28 23:10 | 8.11203 | 98.31832 | 92 ft | 23 kts | 264° |
| 2026-04-28 23:11 | 8.11188 | 98.31677 | 91 ft | 21 kts | 264° |
| 2026-04-28 23:11 | 8.11174 | 98.31523 | 92 ft | 23 kts | 265° |
| 2026-04-28 23:11 | 8.11161 | 98.31372 | 92 ft | 18 kts | 265° |
| 2026-04-28 23:11 | 8.11148 | 98.31247 | 91 ft | 18 kts | 264° |
| 2026-04-28 23:12 | 8.11135 | 98.31122 | 88 ft | 18 kts | 264° |
| 2026-04-28 23:12 | 8.11120 | 98.30999 | 87 ft | 18 kts | 257° |
| 2026-04-28 23:12 | 8.11083 | 98.30878 | 86 ft | 18 kts | 260° |
| 2026-04-28 23:12 | 8.11071 | 98.30749 | 86 ft | 21 kts | 268° |
| 2026-04-28 23:13 | 8.11060 | 98.30600 | 91 ft | 21 kts | 264° |
| 2026-04-28 23:13 | 8.11005 | 98.30480 | 89 ft | 18 kts | 208° |
| 2026-04-28 23:13 | 8.10881 | 98.30447 | 89 ft | 18 kts | 194° |
| 2026-04-28 23:13 | 8.10769 | 98.30418 | 89 ft | 14 kts | 194° |
| 2026-04-28 23:14 | 8.10688 | 98.30410 | 87 ft | 10 kts | 148° |
| 2026-04-28 23:14 | 8.10659 | 98.30464 | 90 ft | 0 kts | 106° |
| 2026-04-28 23:14 | 8.10658 | 98.30467 | 90 ft | 0 kts | 106° |